<?xml version='1.0' encoding='UTF-8'?><gpx version="1.1" creator="JPX - https://github.com/jenetics/jpx" xmlns="http://www.topografix.com/GPX/1/1"><trk><trkseg><trkpt lat="40.6817592" lon="14.7627153"><ele>47.99999999999999</ele><time>2026-04-26T07:45:51.335Z</time></trkpt><trkpt lat="40.681693" lon="14.7626782"><ele>48.0</ele><time>2026-04-26T07:46:18.955Z</time></trkpt><trkpt lat="40.6816626" lon="14.7625993"><ele>48.0</ele><time>2026-04-26T07:46:26.949Z</time></trkpt><trkpt lat="40.6815997" lon="14.7625584"><ele>48.0</ele><time>2026-04-26T07:46:28.949Z</time></trkpt><trkpt lat="40.6815361" lon="14.7626182"><ele>48.0</ele><time>2026-04-26T07:46:33.934Z</time></trkpt><trkpt lat="40.6814784" lon="14.7626721"><ele>47.99999999999999</ele><time>2026-04-26T07:46:38.989Z</time></trkpt><trkpt lat="40.6814296" lon="14.7627574"><ele>48.0</ele><time>2026-04-26T07:46:42.981Z</time></trkpt><trkpt lat="40.6813955" lon="14.7628549"><ele>47.99999999999999</ele><time>2026-04-26T07:46:45.949Z</time></trkpt><trkpt lat="40.6813766" lon="14.7629538"><ele>48.0</ele><time>2026-04-26T07:46:49.911Z</time></trkpt><trkpt lat="40.6813523" lon="14.7630362"><ele>48.0</ele><time>2026-04-26T07:47:03.949Z</time></trkpt><trkpt lat="40.6813707" lon="14.7631225"><ele>48.0</ele><time>2026-04-26T07:47:09.969Z</time></trkpt><trkpt lat="40.6813854" lon="14.7632105"><ele>48.0</ele><time>2026-04-26T07:47:13.991Z</time></trkpt><trkpt lat="40.6814004" lon="14.7632924"><ele>47.99999999999999</ele><time>2026-04-26T07:47:17.87Z</time></trkpt><trkpt lat="40.681417" lon="14.7633875"><ele>48.0</ele><time>2026-04-26T07:47:22.995Z</time></trkpt><trkpt lat="40.6814311" lon="14.7634756"><ele>47.71428571428571</ele><time>2026-04-26T07:47:28.949Z</time></trkpt><trkpt lat="40.6814243" lon="14.7635832"><ele>47.42857142857143</ele><time>2026-04-26T07:47:42.949Z</time></trkpt><trkpt lat="40.6814156" lon="14.7636764"><ele>47.14285714285714</ele><time>2026-04-26T07:47:46.949Z</time></trkpt><trkpt lat="40.681448" lon="14.76376"><ele>46.857142857142854</ele><time>2026-04-26T07:47:50.927Z</time></trkpt><trkpt lat="40.6814604" lon="14.7638563"><ele>46.57142857142857</ele><time>2026-04-26T07:47:54.949Z</time></trkpt><trkpt lat="40.6814329" lon="14.7639451"><ele>46.285714285714285</ele><time>2026-04-26T07:47:58.97Z</time></trkpt><trkpt lat="40.6814428" lon="14.7640327"><ele>46.0</ele><time>2026-04-26T07:48:02.971Z</time></trkpt><trkpt lat="40.6814629" lon="14.7641364"><ele>46.0</ele><time>2026-04-26T07:48:07.966Z</time></trkpt><trkpt lat="40.6814673" lon="14.7642251"><ele>46.0</ele><time>2026-04-26T07:48:12.949Z</time></trkpt><trkpt lat="40.6814755" lon="14.7643118"><ele>46.0</ele><time>2026-04-26T07:48:17.949Z</time></trkpt><trkpt lat="40.6814899" lon="14.7644156"><ele>46.0</ele><time>2026-04-26T07:48:22.913Z</time></trkpt><trkpt lat="40.6815151" lon="14.7645084"><ele>46.0</ele><time>2026-04-26T07:48:26.949Z</time></trkpt><trkpt lat="40.6815166" lon="14.7646029"><ele>46.0</ele><time>2026-04-26T07:48:30.949Z</time></trkpt><trkpt lat="40.6815271" lon="14.7646983"><ele>46.0</ele><time>2026-04-26T07:48:34.954Z</time></trkpt><trkpt lat="40.6815468" lon="14.764782"><ele>45.85714285714286</ele><time>2026-04-26T07:48:38.976Z</time></trkpt><trkpt lat="40.6815613" lon="14.7648736"><ele>45.71428571428571</ele><time>2026-04-26T07:48:43.983Z</time></trkpt><trkpt lat="40.681572" lon="14.7649685"><ele>45.57142857142857</ele><time>2026-04-26T07:48:48.949Z</time></trkpt><trkpt lat="40.6815867" lon="14.7650619"><ele>45.42857142857143</ele><time>2026-04-26T07:48:53.949Z</time></trkpt><trkpt lat="40.6815933" lon="14.7651482"><ele>45.28571428571429</ele><time>2026-04-26T07:48:57.949Z</time></trkpt><trkpt lat="40.6815993" lon="14.7652324"><ele>45.14285714285714</ele><time>2026-04-26T07:49:02.949Z</time></trkpt><trkpt lat="40.6816086" lon="14.765326"><ele>45.0</ele><time>2026-04-26T07:49:07.913Z</time></trkpt><trkpt lat="40.6816096" lon="14.7654199"><ele>45.0</ele><time>2026-04-26T07:49:12.948Z</time></trkpt><trkpt lat="40.6816269" lon="14.7655094"><ele>45.0</ele><time>2026-04-26T07:49:17.949Z</time></trkpt><trkpt lat="40.6816177" lon="14.7656096"><ele>45.0</ele><time>2026-04-26T07:49:22.949Z</time></trkpt><trkpt lat="40.6816469" lon="14.7657046"><ele>45.0</ele><time>2026-04-26T07:49:27.974Z</time></trkpt><trkpt lat="40.6816468" lon="14.765793"><ele>45.0</ele><time>2026-04-26T07:49:31.997Z</time></trkpt><trkpt lat="40.681638" lon="14.765888"><ele>45.0</ele><time>2026-04-26T07:49:36.971Z</time></trkpt><trkpt lat="40.6816259" lon="14.76597"><ele>45.0</ele><time>2026-04-26T07:49:40.949Z</time></trkpt><trkpt lat="40.6816312" lon="14.7660582"><ele>46.14285714285714</ele><time>2026-04-26T07:49:44.949Z</time></trkpt><trkpt lat="40.6816338" lon="14.7661625"><ele>47.28571428571429</ele><time>2026-04-26T07:49:49.989Z</time></trkpt><trkpt lat="40.6816475" lon="14.7662565"><ele>48.42857142857143</ele><time>2026-04-26T07:49:53.949Z</time></trkpt><trkpt lat="40.6816475" lon="14.7663556"><ele>49.57142857142857</ele><time>2026-04-26T07:49:57.949Z</time></trkpt><trkpt lat="40.6816629" lon="14.7664484"><ele>50.71428571428571</ele><time>2026-04-26T07:50:02.949Z</time></trkpt><trkpt lat="40.6816734" lon="14.7665453"><ele>51.85714285714286</ele><time>2026-04-26T07:50:07.98Z</time></trkpt><trkpt lat="40.6816803" lon="14.7666437"><ele>53.0</ele><time>2026-04-26T07:50:13.949Z</time></trkpt><trkpt lat="40.6816827" lon="14.766738"><ele>53.0</ele><time>2026-04-26T07:50:18.949Z</time></trkpt><trkpt lat="40.6817191" lon="14.7668106"><ele>53.0</ele><time>2026-04-26T07:50:23.961Z</time></trkpt><trkpt lat="40.6817374" lon="14.7668971"><ele>53.0</ele><time>2026-04-26T07:50:30.949Z</time></trkpt><trkpt lat="40.681714" lon="14.7669768"><ele>53.0</ele><time>2026-04-26T07:50:34.967Z</time></trkpt><trkpt lat="40.6816865" lon="14.7670622"><ele>53.0</ele><time>2026-04-26T07:50:39.949Z</time></trkpt><trkpt lat="40.6816608" lon="14.7671563"><ele>53.0</ele><time>2026-04-26T07:50:44.949Z</time></trkpt><trkpt lat="40.6816331" lon="14.7672415"><ele>53.0</ele><time>2026-04-26T07:50:48.992Z</time></trkpt><trkpt lat="40.6816093" lon="14.7673331"><ele>53.142857142857146</ele><time>2026-04-26T07:50:52.952Z</time></trkpt><trkpt lat="40.6815406" lon="14.7673321"><ele>53.285714285714285</ele><time>2026-04-26T07:50:58.991Z</time></trkpt><trkpt lat="40.6814715" lon="14.7673166"><ele>53.42857142857143</ele><time>2026-04-26T07:51:05.975Z</time></trkpt><trkpt lat="40.6814064" lon="14.7672999"><ele>53.57142857142857</ele><time>2026-04-26T07:51:10.913Z</time></trkpt><trkpt lat="40.6813453" lon="14.767277"><ele>53.71428571428571</ele><time>2026-04-26T07:51:14.971Z</time></trkpt><trkpt lat="40.6812784" lon="14.7672551"><ele>53.857142857142854</ele><time>2026-04-26T07:51:18.993Z</time></trkpt><trkpt lat="40.681209" lon="14.7672345"><ele>54.0</ele><time>2026-04-26T07:51:24.949Z</time></trkpt><trkpt lat="40.6811412" lon="14.7672173"><ele>52.42857142857143</ele><time>2026-04-26T07:51:30.951Z</time></trkpt><trkpt lat="40.6810695" lon="14.7671974"><ele>50.857142857142854</ele><time>2026-04-26T07:51:35.949Z</time></trkpt><trkpt lat="40.6809924" lon="14.7671736"><ele>49.28571428571429</ele><time>2026-04-26T07:51:39.949Z</time></trkpt><trkpt lat="40.6809212" lon="14.7671464"><ele>47.714285714285715</ele><time>2026-04-26T07:51:43.967Z</time></trkpt><trkpt lat="40.6808596" lon="14.7671244"><ele>46.142857142857146</ele><time>2026-04-26T07:51:47.891Z</time></trkpt><trkpt lat="40.6807871" lon="14.7670928"><ele>44.57142857142858</ele><time>2026-04-26T07:51:52.851Z</time></trkpt><trkpt lat="40.6807189" lon="14.7670722"><ele>43.0</ele><time>2026-04-26T07:51:57.949Z</time></trkpt><trkpt lat="40.6806497" lon="14.7670446"><ele>43.00000000000001</ele><time>2026-04-26T07:52:02.949Z</time></trkpt><trkpt lat="40.6805875" lon="14.7670191"><ele>43.0</ele><time>2026-04-26T07:52:07.97Z</time></trkpt><trkpt lat="40.6805104" lon="14.7669851"><ele>43.0</ele><time>2026-04-26T07:52:12.966Z</time></trkpt><trkpt lat="40.6804359" lon="14.7669552"><ele>43.0</ele><time>2026-04-26T07:52:17.949Z</time></trkpt><trkpt lat="40.6803742" lon="14.7669365"><ele>43.0</ele><time>2026-04-26T07:52:21.961Z</time></trkpt><trkpt lat="40.680313" lon="14.7669087"><ele>43.00000000000001</ele><time>2026-04-26T07:52:25.952Z</time></trkpt><trkpt lat="40.6802383" lon="14.7668784"><ele>43.0</ele><time>2026-04-26T07:52:30.957Z</time></trkpt><trkpt lat="40.6801673" lon="14.7668439"><ele>42.00000000000001</ele><time>2026-04-26T07:52:35.949Z</time></trkpt><trkpt lat="40.6800998" lon="14.7668209"><ele>41.0</ele><time>2026-04-26T07:52:40.911Z</time></trkpt><trkpt lat="40.6800272" lon="14.7667993"><ele>40.0</ele><time>2026-04-26T07:52:45.985Z</time></trkpt><trkpt lat="40.6799616" lon="14.7667781"><ele>39.0</ele><time>2026-04-26T07:52:50.959Z</time></trkpt><trkpt lat="40.6799008" lon="14.7667504"><ele>38.0</ele><time>2026-04-26T07:52:54.98Z</time></trkpt><trkpt lat="40.6798384" lon="14.7666955"><ele>37.00000000000001</ele><time>2026-04-26T07:52:58.949Z</time></trkpt><trkpt lat="40.6797597" lon="14.766671"><ele>36.0</ele><time>2026-04-26T07:53:03.953Z</time></trkpt><trkpt lat="40.6796945" lon="14.7666698"><ele>36.0</ele><time>2026-04-26T07:53:07.997Z</time></trkpt><trkpt lat="40.679609" lon="14.7666294"><ele>36.0</ele><time>2026-04-26T07:53:15.949Z</time></trkpt><trkpt lat="40.6795444" lon="14.7665995"><ele>36.0</ele><time>2026-04-26T07:53:20.949Z</time></trkpt><trkpt lat="40.6794719" lon="14.7665622"><ele>36.0</ele><time>2026-04-26T07:53:24.949Z</time></trkpt><trkpt lat="40.6793984" lon="14.7665345"><ele>36.0</ele><time>2026-04-26T07:53:28.994Z</time></trkpt><trkpt lat="40.6793269" lon="14.7664982"><ele>36.0</ele><time>2026-04-26T07:53:33.951Z</time></trkpt><trkpt lat="40.679268" lon="14.766465"><ele>36.00000000000001</ele><time>2026-04-26T07:53:39.958Z</time></trkpt><trkpt lat="40.6792065" lon="14.7664431"><ele>36.0</ele><time>2026-04-26T07:53:43.871Z</time></trkpt><trkpt lat="40.6791437" lon="14.7664226"><ele>36.0</ele><time>2026-04-26T07:53:47.671Z</time></trkpt><trkpt lat="40.6790724" lon="14.7663974"><ele>36.0</ele><time>2026-04-26T07:53:52.91Z</time></trkpt><trkpt lat="40.6790019" lon="14.7663708"><ele>36.0</ele><time>2026-04-26T07:53:56.997Z</time></trkpt><trkpt lat="40.6789315" lon="14.766334"><ele>36.00000000000001</ele><time>2026-04-26T07:54:01.971Z</time></trkpt><trkpt lat="40.6788573" lon="14.7663022"><ele>36.0</ele><time>2026-04-26T07:54:06.949Z</time></trkpt><trkpt lat="40.6787868" lon="14.7662737"><ele>36.00000000000001</ele><time>2026-04-26T07:54:10.91Z</time></trkpt><trkpt lat="40.6787224" lon="14.7662465"><ele>36.0</ele><time>2026-04-26T07:54:14.988Z</time></trkpt><trkpt lat="40.6786456" lon="14.7662212"><ele>36.0</ele><time>2026-04-26T07:54:21.013Z</time></trkpt><trkpt lat="40.6785785" lon="14.7661951"><ele>36.0</ele><time>2026-04-26T07:54:25.994Z</time></trkpt><trkpt lat="40.6785167" lon="14.7661695"><ele>36.0</ele><time>2026-04-26T07:54:30.968Z</time></trkpt><trkpt lat="40.6784547" lon="14.7661394"><ele>36.00000000000001</ele><time>2026-04-26T07:54:34.996Z</time></trkpt><trkpt lat="40.6783892" lon="14.7661078"><ele>36.0</ele><time>2026-04-26T07:54:39.951Z</time></trkpt><trkpt lat="40.6783171" lon="14.7660882"><ele>35.28571428571429</ele><time>2026-04-26T07:54:44.949Z</time></trkpt><trkpt lat="40.6782443" lon="14.7660627"><ele>34.57142857142857</ele><time>2026-04-26T07:54:49.949Z</time></trkpt><trkpt lat="40.6781733" lon="14.7660158"><ele>33.85714285714286</ele><time>2026-04-26T07:54:56.049Z</time></trkpt><trkpt lat="40.6780992" lon="14.7659942"><ele>33.142857142857146</ele><time>2026-04-26T07:55:02.949Z</time></trkpt><trkpt lat="40.6780355" lon="14.7659774"><ele>32.42857142857143</ele><time>2026-04-26T07:55:06.95Z</time></trkpt><trkpt lat="40.6779704" lon="14.7659717"><ele>31.714285714285715</ele><time>2026-04-26T07:55:11.968Z</time></trkpt><trkpt lat="40.6779031" lon="14.7659491"><ele>31.0</ele><time>2026-04-26T07:55:17.956Z</time></trkpt><trkpt lat="40.6778482" lon="14.7659063"><ele>30.142857142857146</ele><time>2026-04-26T07:55:22.949Z</time></trkpt><trkpt lat="40.6777832" lon="14.7658721"><ele>29.28571428571429</ele><time>2026-04-26T07:55:26.952Z</time></trkpt><trkpt lat="40.6777128" lon="14.7658463"><ele>28.42857142857143</ele><time>2026-04-26T07:55:31.949Z</time></trkpt><trkpt lat="40.677648" lon="14.7658111"><ele>27.571428571428573</ele><time>2026-04-26T07:55:37.958Z</time></trkpt><trkpt lat="40.6775834" lon="14.7657887"><ele>26.714285714285715</ele><time>2026-04-26T07:55:45.949Z</time></trkpt><trkpt lat="40.6775196" lon="14.765765"><ele>25.85714285714286</ele><time>2026-04-26T07:55:52.986Z</time></trkpt><trkpt lat="40.6774297" lon="14.7657617"><ele>25.0</ele><time>2026-04-26T07:55:56.889Z</time></trkpt><trkpt lat="40.6773551" lon="14.7657564"><ele>24.857142857142858</ele><time>2026-04-26T07:55:59.97Z</time></trkpt><trkpt lat="40.6772946" lon="14.7657316"><ele>24.714285714285715</ele><time>2026-04-26T07:56:02.949Z</time></trkpt><trkpt lat="40.6772211" lon="14.7657154"><ele>24.57142857142857</ele><time>2026-04-26T07:56:06.955Z</time></trkpt><trkpt lat="40.6771492" lon="14.7657003"><ele>24.42857142857143</ele><time>2026-04-26T07:56:10.977Z</time></trkpt><trkpt lat="40.677084" lon="14.7656859"><ele>24.285714285714285</ele><time>2026-04-26T07:56:14.998Z</time></trkpt><trkpt lat="40.6770191" lon="14.7656683"><ele>24.142857142857142</ele><time>2026-04-26T07:56:19.893Z</time></trkpt><trkpt lat="40.676961" lon="14.7656215"><ele>24.0</ele><time>2026-04-26T07:56:24.949Z</time></trkpt><trkpt lat="40.676899" lon="14.7655846"><ele>22.999999999999996</ele><time>2026-04-26T07:56:29.933Z</time></trkpt><trkpt lat="40.6768332" lon="14.7655588"><ele>22.0</ele><time>2026-04-26T07:56:35.011Z</time></trkpt><trkpt lat="40.6767726" lon="14.7655249"><ele>21.0</ele><time>2026-04-26T07:56:39.974Z</time></trkpt><trkpt lat="40.6766997" lon="14.7655104"><ele>20.0</ele><time>2026-04-26T07:56:44.949Z</time></trkpt><trkpt lat="40.6766402" lon="14.7654818"><ele>19.0</ele><time>2026-04-26T07:56:49.949Z</time></trkpt><trkpt lat="40.6765762" lon="14.7654589"><ele>17.999999999999996</ele><time>2026-04-26T07:56:54.85Z</time></trkpt><trkpt lat="40.6765098" lon="14.7654328"><ele>17.0</ele><time>2026-04-26T07:56:59.976Z</time></trkpt><trkpt lat="40.6764492" lon="14.7653958"><ele>16.999999999999996</ele><time>2026-04-26T07:57:04.949Z</time></trkpt><trkpt lat="40.6763852" lon="14.7653657"><ele>17.0</ele><time>2026-04-26T07:57:09.949Z</time></trkpt><trkpt lat="40.6763321" lon="14.7653209"><ele>17.0</ele><time>2026-04-26T07:57:13.949Z</time></trkpt><trkpt lat="40.6762771" lon="14.7652622"><ele>17.0</ele><time>2026-04-26T07:57:17.973Z</time></trkpt><trkpt lat="40.6762176" lon="14.7651966"><ele>17.0</ele><time>2026-04-26T07:57:21.988Z</time></trkpt><trkpt lat="40.6761504" lon="14.765192"><ele>16.999999999999996</ele><time>2026-04-26T07:57:29.949Z</time></trkpt><trkpt lat="40.6760762" lon="14.7651699"><ele>17.0</ele><time>2026-04-26T07:57:34.931Z</time></trkpt><trkpt lat="40.6760011" lon="14.7651322"><ele>16.428571428571427</ele><time>2026-04-26T07:57:39.952Z</time></trkpt><trkpt lat="40.6759331" lon="14.7650837"><ele>15.857142857142858</ele><time>2026-04-26T07:57:44Z</time></trkpt><trkpt lat="40.6758769" lon="14.7650344"><ele>15.285714285714285</ele><time>2026-04-26T07:57:49.933Z</time></trkpt><trkpt lat="40.6758107" lon="14.7650128"><ele>14.714285714285714</ele><time>2026-04-26T07:57:55.989Z</time></trkpt><trkpt lat="40.6757583" lon="14.7650798"><ele>14.142857142857142</ele><time>2026-04-26T07:58:01.991Z</time></trkpt><trkpt lat="40.6757097" lon="14.7651366"><ele>13.571428571428571</ele><time>2026-04-26T07:58:05.933Z</time></trkpt><trkpt lat="40.6756837" lon="14.7652137"><ele>13.0</ele><time>2026-04-26T07:58:09.949Z</time></trkpt><trkpt lat="40.6756489" lon="14.765293"><ele>13.0</ele><time>2026-04-26T07:58:15.961Z</time></trkpt><trkpt lat="40.6756146" lon="14.7653693"><ele>13.0</ele><time>2026-04-26T07:58:20.949Z</time></trkpt><trkpt lat="40.6755876" lon="14.7654443"><ele>13.0</ele><time>2026-04-26T07:58:25.949Z</time></trkpt><trkpt lat="40.6755568" lon="14.7655306"><ele>13.0</ele><time>2026-04-26T07:58:31.949Z</time></trkpt><trkpt lat="40.6755324" lon="14.7656091"><ele>13.0</ele><time>2026-04-26T07:58:36.949Z</time></trkpt><trkpt lat="40.6755092" lon="14.7656934"><ele>13.0</ele><time>2026-04-26T07:58:41.994Z</time></trkpt><trkpt lat="40.6754798" lon="14.7657767"><ele>13.0</ele><time>2026-04-26T07:58:45.949Z</time></trkpt><trkpt lat="40.675456" lon="14.7658565"><ele>13.0</ele><time>2026-04-26T07:58:50.012Z</time></trkpt><trkpt lat="40.6754294" lon="14.7659364"><ele>13.0</ele><time>2026-04-26T07:58:54.949Z</time></trkpt><trkpt lat="40.6753952" lon="14.7660242"><ele>13.0</ele><time>2026-04-26T07:59:00.949Z</time></trkpt><trkpt lat="40.6753656" lon="14.7661206"><ele>13.0</ele><time>2026-04-26T07:59:05.993Z</time></trkpt><trkpt lat="40.6753398" lon="14.7661968"><ele>13.0</ele><time>2026-04-26T07:59:09.892Z</time></trkpt><trkpt lat="40.6753146" lon="14.7662841"><ele>13.0</ele><time>2026-04-26T07:59:14.949Z</time></trkpt><trkpt lat="40.6752855" lon="14.7663811"><ele>13.0</ele><time>2026-04-26T07:59:20.949Z</time></trkpt><trkpt lat="40.6752602" lon="14.7664609"><ele>12.285714285714285</ele><time>2026-04-26T07:59:24.961Z</time></trkpt><trkpt lat="40.6752403" lon="14.7665479"><ele>11.571428571428573</ele><time>2026-04-26T07:59:28.912Z</time></trkpt><trkpt lat="40.6752156" lon="14.7666263"><ele>10.857142857142858</ele><time>2026-04-26T07:59:32.949Z</time></trkpt><trkpt lat="40.6751892" lon="14.7667093"><ele>10.142857142857142</ele><time>2026-04-26T07:59:37.977Z</time></trkpt><trkpt lat="40.6751534" lon="14.7667939"><ele>9.428571428571427</ele><time>2026-04-26T07:59:42.91Z</time></trkpt><trkpt lat="40.6751248" lon="14.7668746"><ele>8.714285714285714</ele><time>2026-04-26T07:59:47.949Z</time></trkpt><trkpt lat="40.6750967" lon="14.7669573"><ele>8.0</ele><time>2026-04-26T07:59:53.006Z</time></trkpt><trkpt lat="40.6750679" lon="14.7670384"><ele>8.0</ele><time>2026-04-26T07:59:57.98Z</time></trkpt><trkpt lat="40.6750428" lon="14.7671199"><ele>7.999999999999999</ele><time>2026-04-26T08:00:02.954Z</time></trkpt><trkpt lat="40.6750215" lon="14.7672102"><ele>8.0</ele><time>2026-04-26T08:00:07.875Z</time></trkpt><trkpt lat="40.6749903" lon="14.7673025"><ele>8.0</ele><time>2026-04-26T08:00:12.949Z</time></trkpt><trkpt lat="40.6749577" lon="14.7673873"><ele>7.999999999999999</ele><time>2026-04-26T08:00:17.773Z</time></trkpt><trkpt lat="40.6749345" lon="14.7674721"><ele>8.0</ele><time>2026-04-26T08:00:21.952Z</time></trkpt><trkpt lat="40.6749094" lon="14.7675617"><ele>8.0</ele><time>2026-04-26T08:00:25.893Z</time></trkpt><trkpt lat="40.6748797" lon="14.7676355"><ele>8.285714285714285</ele><time>2026-04-26T08:00:29.949Z</time></trkpt><trkpt lat="40.6748527" lon="14.7677128"><ele>8.571428571428571</ele><time>2026-04-26T08:00:33.856Z</time></trkpt><trkpt lat="40.6748231" lon="14.7678073"><ele>8.857142857142858</ele><time>2026-04-26T08:00:38.89Z</time></trkpt><trkpt lat="40.674795" lon="14.7678873"><ele>9.142857142857142</ele><time>2026-04-26T08:00:42.957Z</time></trkpt><trkpt lat="40.6747645" lon="14.7679716"><ele>9.428571428571429</ele><time>2026-04-26T08:00:47.949Z</time></trkpt><trkpt lat="40.674735" lon="14.7680604"><ele>9.714285714285714</ele><time>2026-04-26T08:00:52.949Z</time></trkpt><trkpt lat="40.6747113" lon="14.7681435"><ele>10.0</ele><time>2026-04-26T08:00:57.965Z</time></trkpt><trkpt lat="40.6746762" lon="14.7682283"><ele>10.0</ele><time>2026-04-26T08:01:02.959Z</time></trkpt><trkpt lat="40.6746521" lon="14.7683156"><ele>10.0</ele><time>2026-04-26T08:01:07.949Z</time></trkpt><trkpt lat="40.6746096" lon="14.7683822"><ele>10.0</ele><time>2026-04-26T08:01:12.909Z</time></trkpt><trkpt lat="40.6745701" lon="14.7683134"><ele>10.0</ele><time>2026-04-26T08:01:24.049Z</time></trkpt><trkpt lat="40.6745516" lon="14.7682163"><ele>10.0</ele><time>2026-04-26T08:01:28.949Z</time></trkpt><trkpt lat="40.6746016" lon="14.7681654"><ele>10.0</ele><time>2026-04-26T08:01:35.949Z</time></trkpt><trkpt lat="40.6745602" lon="14.7680956"><ele>10.0</ele><time>2026-04-26T08:01:48.949Z</time></trkpt><trkpt lat="40.6745784" lon="14.7680146"><ele>10.0</ele><time>2026-04-26T08:01:53.971Z</time></trkpt><trkpt lat="40.6746013" lon="14.7679254"><ele>10.0</ele><time>2026-04-26T08:01:58.949Z</time></trkpt><trkpt lat="40.6746132" lon="14.7678415"><ele>10.0</ele><time>2026-04-26T08:02:02.968Z</time></trkpt><trkpt lat="40.6746447" lon="14.7677505"><ele>10.0</ele><time>2026-04-26T08:02:07.949Z</time></trkpt><trkpt lat="40.6746698" lon="14.7676603"><ele>10.0</ele><time>2026-04-26T08:02:13.975Z</time></trkpt><trkpt lat="40.6747032" lon="14.7675771"><ele>10.0</ele><time>2026-04-26T08:02:18.949Z</time></trkpt><trkpt lat="40.6747291" lon="14.767494"><ele>10.0</ele><time>2026-04-26T08:02:22.852Z</time></trkpt><trkpt lat="40.6747555" lon="14.7674074"><ele>9.714285714285714</ele><time>2026-04-26T08:02:27.949Z</time></trkpt><trkpt lat="40.6747825" lon="14.767324"><ele>9.428571428571429</ele><time>2026-04-26T08:02:31.998Z</time></trkpt><trkpt lat="40.6748111" lon="14.7672398"><ele>9.142857142857142</ele><time>2026-04-26T08:02:36.949Z</time></trkpt><trkpt lat="40.67484" lon="14.7671499"><ele>8.857142857142858</ele><time>2026-04-26T08:02:41.949Z</time></trkpt><trkpt lat="40.6748653" lon="14.7670699"><ele>8.571428571428571</ele><time>2026-04-26T08:02:45.949Z</time></trkpt><trkpt lat="40.6748911" lon="14.7669924"><ele>8.285714285714285</ele><time>2026-04-26T08:02:50.949Z</time></trkpt><trkpt lat="40.6749138" lon="14.7669136"><ele>8.0</ele><time>2026-04-26T08:02:55.99Z</time></trkpt><trkpt lat="40.6749415" lon="14.7668264"><ele>8.0</ele><time>2026-04-26T08:02:59.949Z</time></trkpt><trkpt lat="40.6749726" lon="14.7667456"><ele>7.999999999999999</ele><time>2026-04-26T08:03:04.011Z</time></trkpt><trkpt lat="40.6749989" lon="14.7666583"><ele>8.0</ele><time>2026-04-26T08:03:08.949Z</time></trkpt><trkpt lat="40.6750268" lon="14.7665727"><ele>8.0</ele><time>2026-04-26T08:03:13.981Z</time></trkpt><trkpt lat="40.6750531" lon="14.7664823"><ele>7.999999999999999</ele><time>2026-04-26T08:03:18.955Z</time></trkpt><trkpt lat="40.6750839" lon="14.7663979"><ele>8.0</ele><time>2026-04-26T08:03:23.949Z</time></trkpt><trkpt lat="40.6751077" lon="14.7663192"><ele>8.0</ele><time>2026-04-26T08:03:29.009Z</time></trkpt><trkpt lat="40.6751356" lon="14.7662312"><ele>8.0</ele><time>2026-04-26T08:03:33.983Z</time></trkpt><trkpt lat="40.6751643" lon="14.7661468"><ele>7.999999999999999</ele><time>2026-04-26T08:03:37.931Z</time></trkpt><trkpt lat="40.675192" lon="14.7660645"><ele>8.0</ele><time>2026-04-26T08:03:42.979Z</time></trkpt><trkpt lat="40.675219" lon="14.7659737"><ele>8.0</ele><time>2026-04-26T08:03:47.953Z</time></trkpt><trkpt lat="40.6752453" lon="14.7658889"><ele>7.999999999999999</ele><time>2026-04-26T08:03:52.949Z</time></trkpt><trkpt lat="40.6752746" lon="14.7657983"><ele>8.0</ele><time>2026-04-26T08:03:56.993Z</time></trkpt><trkpt lat="40.6753019" lon="14.7657127"><ele>8.0</ele><time>2026-04-26T08:04:01.949Z</time></trkpt><trkpt lat="40.6753306" lon="14.7656283"><ele>7.857142857142857</ele><time>2026-04-26T08:04:07.002Z</time></trkpt><trkpt lat="40.6753587" lon="14.765545"><ele>7.7142857142857135</ele><time>2026-04-26T08:04:10.949Z</time></trkpt><trkpt lat="40.6753904" lon="14.7654543"><ele>7.571428571428571</ele><time>2026-04-26T08:04:15.998Z</time></trkpt><trkpt lat="40.6754205" lon="14.7653718"><ele>7.428571428571429</ele><time>2026-04-26T08:04:20.972Z</time></trkpt><trkpt lat="40.6754489" lon="14.7652773"><ele>7.285714285714286</ele><time>2026-04-26T08:04:27.004Z</time></trkpt><trkpt lat="40.675481" lon="14.7651835"><ele>7.142857142857142</ele><time>2026-04-26T08:04:31.978Z</time></trkpt><trkpt lat="40.6755074" lon="14.7650981"><ele>7.0</ele><time>2026-04-26T08:04:36.952Z</time></trkpt><trkpt lat="40.6755301" lon="14.7650084"><ele>7.0</ele><time>2026-04-26T08:04:41.949Z</time></trkpt><trkpt lat="40.6755629" lon="14.7649199"><ele>7.0</ele><time>2026-04-26T08:04:46.949Z</time></trkpt><trkpt lat="40.6755871" lon="14.7648375"><ele>7.0</ele><time>2026-04-26T08:04:51.98Z</time></trkpt><trkpt lat="40.6756131" lon="14.7647596"><ele>7.0</ele><time>2026-04-26T08:04:56.951Z</time></trkpt><trkpt lat="40.6756386" lon="14.7646756"><ele>7.0</ele><time>2026-04-26T08:05:01.949Z</time></trkpt><trkpt lat="40.675664" lon="14.7645988"><ele>7.0</ele><time>2026-04-26T08:05:05.949Z</time></trkpt><trkpt lat="40.6756901" lon="14.7645205"><ele>7.0</ele><time>2026-04-26T08:05:09.971Z</time></trkpt><trkpt lat="40.6757189" lon="14.7644399"><ele>6.857142857142857</ele><time>2026-04-26T08:05:14.949Z</time></trkpt><trkpt lat="40.6757432" lon="14.7643531"><ele>6.714285714285714</ele><time>2026-04-26T08:05:19.949Z</time></trkpt><trkpt lat="40.6757737" lon="14.7642632"><ele>6.571428571428571</ele><time>2026-04-26T08:05:24.998Z</time></trkpt><trkpt lat="40.675805" lon="14.7641644"><ele>6.428571428571429</ele><time>2026-04-26T08:05:29.972Z</time></trkpt><trkpt lat="40.6758351" lon="14.7640741"><ele>6.285714285714286</ele><time>2026-04-26T08:05:34.949Z</time></trkpt><trkpt lat="40.6758603" lon="14.7639927"><ele>6.142857142857142</ele><time>2026-04-26T08:05:39.949Z</time></trkpt><trkpt lat="40.6758938" lon="14.7639002"><ele>6.0</ele><time>2026-04-26T08:05:44.873Z</time></trkpt><trkpt lat="40.6759205" lon="14.7638039"><ele>5.999999999999999</ele><time>2026-04-26T08:05:49.974Z</time></trkpt><trkpt lat="40.6759516" lon="14.7637136"><ele>6.0</ele><time>2026-04-26T08:05:54.949Z</time></trkpt><trkpt lat="40.6759768" lon="14.7636364"><ele>6.0</ele><time>2026-04-26T08:05:58.969Z</time></trkpt><trkpt lat="40.6760067" lon="14.7635421"><ele>6.0</ele><time>2026-04-26T08:06:03.997Z</time></trkpt><trkpt lat="40.6760345" lon="14.7634554"><ele>6.0</ele><time>2026-04-26T08:06:07.933Z</time></trkpt><trkpt lat="40.6760604" lon="14.7633739"><ele>5.999999999999999</ele><time>2026-04-26T08:06:12.949Z</time></trkpt><trkpt lat="40.6760911" lon="14.7632998"><ele>6.0</ele><time>2026-04-26T08:06:17.949Z</time></trkpt><trkpt lat="40.6761137" lon="14.7632121"><ele>6.571428571428571</ele><time>2026-04-26T08:06:21.969Z</time></trkpt><trkpt lat="40.6761402" lon="14.7631255"><ele>7.142857142857142</ele><time>2026-04-26T08:06:25.956Z</time></trkpt><trkpt lat="40.6761683" lon="14.7630473"><ele>7.7142857142857135</ele><time>2026-04-26T08:06:30.949Z</time></trkpt><trkpt lat="40.6761954" lon="14.7629591"><ele>8.285714285714285</ele><time>2026-04-26T08:06:34.951Z</time></trkpt><trkpt lat="40.6762263" lon="14.7628695"><ele>8.857142857142858</ele><time>2026-04-26T08:06:39.951Z</time></trkpt><trkpt lat="40.6762511" lon="14.7627798"><ele>9.428571428571429</ele><time>2026-04-26T08:06:45.005Z</time></trkpt><trkpt lat="40.676283" lon="14.762695"><ele>10.0</ele><time>2026-04-26T08:06:50.949Z</time></trkpt><trkpt lat="40.6763076" lon="14.7626048"><ele>10.0</ele><time>2026-04-26T08:06:55.951Z</time></trkpt><trkpt lat="40.6763343" lon="14.7625284"><ele>10.0</ele><time>2026-04-26T08:06:59.894Z</time></trkpt><trkpt lat="40.6763662" lon="14.7624314"><ele>10.0</ele><time>2026-04-26T08:07:05.959Z</time></trkpt><trkpt lat="40.6763944" lon="14.7623528"><ele>10.0</ele><time>2026-04-26T08:07:10.949Z</time></trkpt><trkpt lat="40.6764195" lon="14.7622722"><ele>10.0</ele><time>2026-04-26T08:07:14.954Z</time></trkpt><trkpt lat="40.6764504" lon="14.7621848"><ele>10.0</ele><time>2026-04-26T08:07:20.986Z</time></trkpt><trkpt lat="40.6764798" lon="14.762095"><ele>10.0</ele><time>2026-04-26T08:07:25.96Z</time></trkpt><trkpt lat="40.676508" lon="14.7620207"><ele>10.0</ele><time>2026-04-26T08:07:30.013Z</time></trkpt><trkpt lat="40.6765342" lon="14.7619407"><ele>10.0</ele><time>2026-04-26T08:07:34.956Z</time></trkpt><trkpt lat="40.6765571" lon="14.7618598"><ele>10.0</ele><time>2026-04-26T08:07:39.949Z</time></trkpt><trkpt lat="40.6765832" lon="14.7617761"><ele>10.0</ele><time>2026-04-26T08:07:43.951Z</time></trkpt><trkpt lat="40.6766138" lon="14.7616811"><ele>10.0</ele><time>2026-04-26T08:07:47.874Z</time></trkpt><trkpt lat="40.6766347" lon="14.7615954"><ele>10.0</ele><time>2026-04-26T08:07:52.01Z</time></trkpt><trkpt lat="40.6766621" lon="14.7615195"><ele>10.0</ele><time>2026-04-26T08:07:56.968Z</time></trkpt><trkpt lat="40.6766896" lon="14.7614407"><ele>9.285714285714285</ele><time>2026-04-26T08:08:01.992Z</time></trkpt><trkpt lat="40.6767201" lon="14.7613468"><ele>8.571428571428571</ele><time>2026-04-26T08:08:07.974Z</time></trkpt><trkpt lat="40.6767516" lon="14.7612566"><ele>7.857142857142858</ele><time>2026-04-26T08:08:11.949Z</time></trkpt><trkpt lat="40.6767792" lon="14.7611695"><ele>7.142857142857142</ele><time>2026-04-26T08:08:15.952Z</time></trkpt><trkpt lat="40.6768014" lon="14.7610855"><ele>6.428571428571429</ele><time>2026-04-26T08:08:19.949Z</time></trkpt><trkpt lat="40.676829" lon="14.7610065"><ele>5.714285714285714</ele><time>2026-04-26T08:08:24.948Z</time></trkpt><trkpt lat="40.6768585" lon="14.7609198"><ele>5.0</ele><time>2026-04-26T08:08:29.986Z</time></trkpt><trkpt lat="40.6768868" lon="14.760834"><ele>4.428571428571429</ele><time>2026-04-26T08:08:34.96Z</time></trkpt><trkpt lat="40.6769128" lon="14.7607561"><ele>3.857142857142857</ele><time>2026-04-26T08:08:39.949Z</time></trkpt><trkpt lat="40.6769329" lon="14.7606766"><ele>3.2857142857142856</ele><time>2026-04-26T08:08:45.966Z</time></trkpt><trkpt lat="40.676961" lon="14.7605975"><ele>2.7142857142857144</ele><time>2026-04-26T08:08:50.014Z</time></trkpt><trkpt lat="40.6769862" lon="14.7605129"><ele>2.142857142857143</ele><time>2026-04-26T08:08:53.948Z</time></trkpt><trkpt lat="40.6770207" lon="14.7604183"><ele>1.5714285714285714</ele><time>2026-04-26T08:08:58.983Z</time></trkpt><trkpt lat="40.6770495" lon="14.7603291"><ele>1.0</ele><time>2026-04-26T08:09:03.973Z</time></trkpt><trkpt lat="40.6770771" lon="14.7602419"><ele>1.7142857142857142</ele><time>2026-04-26T08:09:08.949Z</time></trkpt><trkpt lat="40.6771052" lon="14.7601495"><ele>2.4285714285714284</ele><time>2026-04-26T08:09:14.963Z</time></trkpt><trkpt lat="40.6771324" lon="14.7600563"><ele>3.1428571428571423</ele><time>2026-04-26T08:09:19.972Z</time></trkpt><trkpt lat="40.6771602" lon="14.7599761"><ele>3.8571428571428568</ele><time>2026-04-26T08:09:24.893Z</time></trkpt><trkpt lat="40.6771864" lon="14.759894"><ele>4.571428571428571</ele><time>2026-04-26T08:09:29.991Z</time></trkpt><trkpt lat="40.6772136" lon="14.7598103"><ele>5.285714285714286</ele><time>2026-04-26T08:09:34.964Z</time></trkpt><trkpt lat="40.6772417" lon="14.759717"><ele>6.0</ele><time>2026-04-26T08:09:38.973Z</time></trkpt><trkpt lat="40.677273" lon="14.7596219"><ele>5.999999999999999</ele><time>2026-04-26T08:09:43.953Z</time></trkpt><trkpt lat="40.6773051" lon="14.75953"><ele>6.0</ele><time>2026-04-26T08:09:49.992Z</time></trkpt><trkpt lat="40.6773358" lon="14.759453"><ele>6.0</ele><time>2026-04-26T08:09:53.949Z</time></trkpt><trkpt lat="40.6773572" lon="14.7593673"><ele>6.0</ele><time>2026-04-26T08:09:57.949Z</time></trkpt><trkpt lat="40.6773861" lon="14.7592828"><ele>6.0</ele><time>2026-04-26T08:10:02.949Z</time></trkpt><trkpt lat="40.6774121" lon="14.7591931"><ele>5.999999999999999</ele><time>2026-04-26T08:10:07.983Z</time></trkpt><trkpt lat="40.6774359" lon="14.7591097"><ele>6.0</ele><time>2026-04-26T08:10:12.613Z</time></trkpt><trkpt lat="40.6774591" lon="14.7590295"><ele>5.571428571428571</ele><time>2026-04-26T08:10:16.851Z</time></trkpt><trkpt lat="40.6774855" lon="14.7589385"><ele>5.142857142857142</ele><time>2026-04-26T08:10:23.963Z</time></trkpt><trkpt lat="40.677511" lon="14.7588512"><ele>4.7142857142857135</ele><time>2026-04-26T08:10:29.995Z</time></trkpt><trkpt lat="40.6775347" lon="14.758769"><ele>4.285714285714286</ele><time>2026-04-26T08:10:33.87Z</time></trkpt><trkpt lat="40.6775697" lon="14.75867"><ele>3.8571428571428568</ele><time>2026-04-26T08:10:37.954Z</time></trkpt><trkpt lat="40.6776021" lon="14.7585903"><ele>3.4285714285714284</ele><time>2026-04-26T08:10:41.953Z</time></trkpt><trkpt lat="40.6776335" lon="14.7585137"><ele>3.0</ele><time>2026-04-26T08:10:46.997Z</time></trkpt><trkpt lat="40.6776607" lon="14.7584281"><ele>2.9999999999999996</ele><time>2026-04-26T08:10:52.959Z</time></trkpt><trkpt lat="40.6776944" lon="14.7583331"><ele>3.0</ele><time>2026-04-26T08:10:57.949Z</time></trkpt><trkpt lat="40.6777266" lon="14.758245"><ele>3.0</ele><time>2026-04-26T08:11:01.955Z</time></trkpt><trkpt lat="40.6777451" lon="14.7581552"><ele>3.0</ele><time>2026-04-26T08:11:06.911Z</time></trkpt><trkpt lat="40.6777665" lon="14.7580646"><ele>3.0</ele><time>2026-04-26T08:11:10.95Z</time></trkpt><trkpt lat="40.6777847" lon="14.7579663"><ele>2.9999999999999996</ele><time>2026-04-26T08:11:15.949Z</time></trkpt><trkpt lat="40.6778012" lon="14.7578861"><ele>3.0</ele><time>2026-04-26T08:11:20.949Z</time></trkpt><trkpt lat="40.677815" lon="14.7578015"><ele>3.714285714285714</ele><time>2026-04-26T08:11:25.889Z</time></trkpt><trkpt lat="40.67783" lon="14.7577076"><ele>4.428571428571429</ele><time>2026-04-26T08:11:29.949Z</time></trkpt><trkpt lat="40.6778387" lon="14.7576121"><ele>5.142857142857142</ele><time>2026-04-26T08:11:34.854Z</time></trkpt><trkpt lat="40.6778517" lon="14.7575227"><ele>5.857142857142857</ele><time>2026-04-26T08:11:39.949Z</time></trkpt><trkpt lat="40.6778592" lon="14.7574328"><ele>6.57142857142857</ele><time>2026-04-26T08:11:44.929Z</time></trkpt><trkpt lat="40.6778729" lon="14.7573299"><ele>7.285714285714286</ele><time>2026-04-26T08:11:50.955Z</time></trkpt><trkpt lat="40.6778769" lon="14.757238"><ele>8.0</ele><time>2026-04-26T08:11:54.969Z</time></trkpt><trkpt lat="40.6778856" lon="14.7571436"><ele>8.285714285714285</ele><time>2026-04-26T08:11:59.935Z</time></trkpt><trkpt lat="40.6778884" lon="14.7570473"><ele>8.571428571428571</ele><time>2026-04-26T08:12:04.949Z</time></trkpt><trkpt lat="40.6778959" lon="14.7569581"><ele>8.857142857142858</ele><time>2026-04-26T08:12:09.949Z</time></trkpt><trkpt lat="40.6778935" lon="14.756873"><ele>9.142857142857142</ele><time>2026-04-26T08:12:13.949Z</time></trkpt><trkpt lat="40.6778866" lon="14.7567726"><ele>9.428571428571429</ele><time>2026-04-26T08:12:18.993Z</time></trkpt><trkpt lat="40.6778807" lon="14.7566821"><ele>9.714285714285714</ele><time>2026-04-26T08:12:23.975Z</time></trkpt><trkpt lat="40.6778752" lon="14.7565882"><ele>10.0</ele><time>2026-04-26T08:12:28.949Z</time></trkpt><trkpt lat="40.6778654" lon="14.7565003"><ele>10.142857142857142</ele><time>2026-04-26T08:12:33.91Z</time></trkpt><trkpt lat="40.6778536" lon="14.7564044"><ele>10.285714285714286</ele><time>2026-04-26T08:12:39.002Z</time></trkpt><trkpt lat="40.6778414" lon="14.756313"><ele>10.428571428571429</ele><time>2026-04-26T08:12:43.976Z</time></trkpt><trkpt lat="40.6778285" lon="14.7562261"><ele>10.571428571428571</ele><time>2026-04-26T08:12:47.998Z</time></trkpt><trkpt lat="40.6778281" lon="14.7561332"><ele>10.714285714285714</ele><time>2026-04-26T08:12:52.972Z</time></trkpt><trkpt lat="40.6779057" lon="14.7561168"><ele>10.857142857142858</ele><time>2026-04-26T08:13:00.949Z</time></trkpt><trkpt lat="40.6779767" lon="14.7561104"><ele>11.0</ele><time>2026-04-26T08:13:04.89Z</time></trkpt><trkpt lat="40.678038" lon="14.756065"><ele>11.0</ele><time>2026-04-26T08:13:08.952Z</time></trkpt><trkpt lat="40.6780138" lon="14.7559651"><ele>11.0</ele><time>2026-04-26T08:13:14.984Z</time></trkpt><trkpt lat="40.6779987" lon="14.7558752"><ele>11.0</ele><time>2026-04-26T08:13:19.912Z</time></trkpt><trkpt lat="40.6779812" lon="14.7557893"><ele>11.0</ele><time>2026-04-26T08:13:24.949Z</time></trkpt><trkpt lat="40.6779449" lon="14.7557051"><ele>11.0</ele><time>2026-04-26T08:13:30.913Z</time></trkpt><trkpt lat="40.6779153" lon="14.755612"><ele>11.0</ele><time>2026-04-26T08:13:36.997Z</time></trkpt><trkpt lat="40.6778801" lon="14.7555267"><ele>11.0</ele><time>2026-04-26T08:13:42.949Z</time></trkpt><trkpt lat="40.6778618" lon="14.7554254"><ele>11.0</ele><time>2026-04-26T08:13:48.91Z</time></trkpt><trkpt lat="40.6778483" lon="14.755339"><ele>11.0</ele><time>2026-04-26T08:13:52.977Z</time></trkpt><trkpt lat="40.6778285" lon="14.7552487"><ele>11.0</ele><time>2026-04-26T08:13:57.951Z</time></trkpt><trkpt lat="40.677814" lon="14.7551573"><ele>11.0</ele><time>2026-04-26T08:14:01.972Z</time></trkpt><trkpt lat="40.6777812" lon="14.7550807"><ele>11.0</ele><time>2026-04-26T08:14:06.949Z</time></trkpt><trkpt lat="40.6777409" lon="14.7550025"><ele>11.0</ele><time>2026-04-26T08:14:12.978Z</time></trkpt><trkpt lat="40.6776999" lon="14.75492"><ele>11.0</ele><time>2026-04-26T08:14:19.963Z</time></trkpt><trkpt lat="40.6776722" lon="14.7548428"><ele>10.142857142857142</ele><time>2026-04-26T08:14:24.949Z</time></trkpt><trkpt lat="40.6776364" lon="14.7547576"><ele>9.285714285714285</ele><time>2026-04-26T08:14:30.969Z</time></trkpt><trkpt lat="40.6775872" lon="14.7547025"><ele>8.428571428571429</ele><time>2026-04-26T08:14:35.891Z</time></trkpt><trkpt lat="40.677558" lon="14.7546252"><ele>7.571428571428571</ele><time>2026-04-26T08:14:41.975Z</time></trkpt><trkpt lat="40.6774881" lon="14.7546088"><ele>6.714285714285714</ele><time>2026-04-26T08:14:48.007Z</time></trkpt><trkpt lat="40.6774466" lon="14.7546814"><ele>5.857142857142857</ele><time>2026-04-26T08:14:53.949Z</time></trkpt><trkpt lat="40.6773693" lon="14.7546654"><ele>5.0</ele><time>2026-04-26T08:14:59.966Z</time></trkpt><trkpt lat="40.6773098" lon="14.7546082"><ele>5.0</ele><time>2026-04-26T08:15:02.912Z</time></trkpt><trkpt lat="40.6772363" lon="14.7545852"><ele>5.0</ele><time>2026-04-26T08:15:06.95Z</time></trkpt><trkpt lat="40.6771872" lon="14.754516"><ele>5.0</ele><time>2026-04-26T08:15:11.949Z</time></trkpt><trkpt lat="40.6771401" lon="14.7544532"><ele>5.0</ele><time>2026-04-26T08:15:15.949Z</time></trkpt><trkpt lat="40.6770821" lon="14.754393"><ele>5.0</ele><time>2026-04-26T08:15:20.912Z</time></trkpt><trkpt lat="40.6770247" lon="14.7543234"><ele>5.0</ele><time>2026-04-26T08:15:25.999Z</time></trkpt><trkpt lat="40.6769695" lon="14.7542624"><ele>5.0</ele><time>2026-04-26T08:15:30.973Z</time></trkpt><trkpt lat="40.6769115" lon="14.7541975"><ele>5.0</ele><time>2026-04-26T08:15:35.949Z</time></trkpt><trkpt lat="40.6768585" lon="14.7541421"><ele>5.0</ele><time>2026-04-26T08:15:40.949Z</time></trkpt><trkpt lat="40.6768045" lon="14.7540813"><ele>5.0</ele><time>2026-04-26T08:15:45.949Z</time></trkpt><trkpt lat="40.6767528" lon="14.7540275"><ele>5.0</ele><time>2026-04-26T08:15:50.975Z</time></trkpt><trkpt lat="40.6767001" lon="14.753967"><ele>5.0</ele><time>2026-04-26T08:15:55.949Z</time></trkpt><trkpt lat="40.6766384" lon="14.7538994"><ele>5.0</ele><time>2026-04-26T08:16:00.949Z</time></trkpt><trkpt lat="40.676587" lon="14.7538423"><ele>5.0</ele><time>2026-04-26T08:16:04.99Z</time></trkpt><trkpt lat="40.6765253" lon="14.7537764"><ele>5.0</ele><time>2026-04-26T08:16:09.948Z</time></trkpt><trkpt lat="40.6764749" lon="14.7537205"><ele>5.0</ele><time>2026-04-26T08:16:14.89Z</time></trkpt><trkpt lat="40.6764262" lon="14.7536652"><ele>5.0</ele><time>2026-04-26T08:16:18.949Z</time></trkpt><trkpt lat="40.6763737" lon="14.7536093"><ele>5.0</ele><time>2026-04-26T08:16:23.993Z</time></trkpt><trkpt lat="40.6763187" lon="14.7535496"><ele>5.0</ele><time>2026-04-26T08:16:28.967Z</time></trkpt><trkpt lat="40.6762632" lon="14.7534869"><ele>5.0</ele><time>2026-04-26T08:16:34.01Z</time></trkpt><trkpt lat="40.6762046" lon="14.7534255"><ele>5.0</ele><time>2026-04-26T08:16:39.973Z</time></trkpt><trkpt lat="40.6761487" lon="14.7533585"><ele>4.714285714285714</ele><time>2026-04-26T08:16:44.949Z</time></trkpt><trkpt lat="40.6760934" lon="14.7532982"><ele>4.428571428571429</ele><time>2026-04-26T08:16:49.949Z</time></trkpt><trkpt lat="40.6760371" lon="14.7532357"><ele>4.142857142857142</ele><time>2026-04-26T08:16:55Z</time></trkpt><trkpt lat="40.6759832" lon="14.7531826"><ele>3.8571428571428568</ele><time>2026-04-26T08:16:59.974Z</time></trkpt><trkpt lat="40.6759325" lon="14.7531237"><ele>3.571428571428571</ele><time>2026-04-26T08:17:03.996Z</time></trkpt><trkpt lat="40.6758845" lon="14.7530689"><ele>3.2857142857142856</ele><time>2026-04-26T08:17:07.89Z</time></trkpt><trkpt lat="40.6758267" lon="14.7530034"><ele>3.0</ele><time>2026-04-26T08:17:11.949Z</time></trkpt><trkpt lat="40.6757661" lon="14.7529398"><ele>2.9999999999999996</ele><time>2026-04-26T08:17:16.949Z</time></trkpt><trkpt lat="40.6757112" lon="14.7528734"><ele>3.0</ele><time>2026-04-26T08:17:21.987Z</time></trkpt><trkpt lat="40.6756599" lon="14.7528176"><ele>3.0</ele><time>2026-04-26T08:17:26.96Z</time></trkpt><trkpt lat="40.6755947" lon="14.752802"><ele>3.0</ele><time>2026-04-26T08:17:31.949Z</time></trkpt><trkpt lat="40.6755397" lon="14.7527401"><ele>3.0</ele><time>2026-04-26T08:17:36.949Z</time></trkpt><trkpt lat="40.6754841" lon="14.7526795"><ele>2.9999999999999996</ele><time>2026-04-26T08:17:41.889Z</time></trkpt><trkpt lat="40.6754275" lon="14.7526229"><ele>3.0</ele><time>2026-04-26T08:17:46.893Z</time></trkpt><trkpt lat="40.6753674" lon="14.752558"><ele>2.8571428571428568</ele><time>2026-04-26T08:17:52.99Z</time></trkpt><trkpt lat="40.6753056" lon="14.7524984"><ele>2.7142857142857144</ele><time>2026-04-26T08:17:57.912Z</time></trkpt><trkpt lat="40.6752673" lon="14.7524258"><ele>2.571428571428571</ele><time>2026-04-26T08:18:01.891Z</time></trkpt><trkpt lat="40.6752298" lon="14.7523551"><ele>2.4285714285714284</ele><time>2026-04-26T08:18:07.949Z</time></trkpt><trkpt lat="40.6751911" lon="14.7522775"><ele>2.2857142857142856</ele><time>2026-04-26T08:18:13.913Z</time></trkpt><trkpt lat="40.6751344" lon="14.7522294"><ele>2.142857142857143</ele><time>2026-04-26T08:18:19.977Z</time></trkpt><trkpt lat="40.6750738" lon="14.7521709"><ele>2.0</ele><time>2026-04-26T08:18:25.853Z</time></trkpt><trkpt lat="40.6750189" lon="14.7521061"><ele>1.7142857142857142</ele><time>2026-04-26T08:18:29.913Z</time></trkpt><trkpt lat="40.674953" lon="14.7521399"><ele>1.4285714285714284</ele><time>2026-04-26T08:18:35.957Z</time></trkpt><trkpt lat="40.6748902" lon="14.7521803"><ele>1.1428571428571428</ele><time>2026-04-26T08:18:40.949Z</time></trkpt><trkpt lat="40.6748293" lon="14.7522223"><ele>0.8571428571428571</ele><time>2026-04-26T08:18:45.949Z</time></trkpt><trkpt lat="40.6747643" lon="14.7522368"><ele>0.5714285714285714</ele><time>2026-04-26T08:18:49.973Z</time></trkpt><trkpt lat="40.6747027" lon="14.7522651"><ele>0.2857142857142857</ele><time>2026-04-26T08:18:55.007Z</time></trkpt><trkpt lat="40.6746415" lon="14.7522961"><ele>0.0</ele><time>2026-04-26T08:18:59.93Z</time></trkpt><trkpt lat="40.6745736" lon="14.7523329"><ele>0.0</ele><time>2026-04-26T08:19:05.949Z</time></trkpt><trkpt lat="40.6745046" lon="14.7523381"><ele>0.0</ele><time>2026-04-26T08:19:11.951Z</time></trkpt><trkpt lat="40.6744392" lon="14.7523598"><ele>0.0</ele><time>2026-04-26T08:19:16.949Z</time></trkpt><trkpt lat="40.6743727" lon="14.7523917"><ele>0.0</ele><time>2026-04-26T08:19:22.953Z</time></trkpt><trkpt lat="40.6743091" lon="14.752422"><ele>0.0</ele><time>2026-04-26T08:19:27.949Z</time></trkpt><trkpt lat="40.6742374" lon="14.7524544"><ele>0.0</ele><time>2026-04-26T08:19:33.953Z</time></trkpt><trkpt lat="40.674183" lon="14.7525021"><ele>0.0</ele><time>2026-04-26T08:19:37.974Z</time></trkpt><trkpt lat="40.6741164" lon="14.7525338"><ele>0.0</ele><time>2026-04-26T08:19:43.949Z</time></trkpt><trkpt lat="40.6740662" lon="14.7525961"><ele>0.0</ele><time>2026-04-26T08:19:48.853Z</time></trkpt><trkpt lat="40.6740007" lon="14.752615"><ele>0.0</ele><time>2026-04-26T08:19:56.949Z</time></trkpt><trkpt lat="40.6739472" lon="14.752674"><ele>0.0</ele><time>2026-04-26T08:20:02.95Z</time></trkpt><trkpt lat="40.6739005" lon="14.7527505"><ele>0.0</ele><time>2026-04-26T08:20:07.949Z</time></trkpt><trkpt lat="40.6738433" lon="14.7528067"><ele>0.0</ele><time>2026-04-26T08:20:12.949Z</time></trkpt><trkpt lat="40.6737746" lon="14.7528429"><ele>0.0</ele><time>2026-04-26T08:20:17.913Z</time></trkpt><trkpt lat="40.6737203" lon="14.7528918"><ele>0.0</ele><time>2026-04-26T08:20:22.952Z</time></trkpt><trkpt lat="40.6736711" lon="14.7529446"><ele>0.0</ele><time>2026-04-26T08:20:27.911Z</time></trkpt><trkpt lat="40.6736257" lon="14.75301"><ele>0.0</ele><time>2026-04-26T08:20:31.995Z</time></trkpt><trkpt lat="40.6735782" lon="14.7530816"><ele>0.0</ele><time>2026-04-26T08:20:36.949Z</time></trkpt><trkpt lat="40.6735284" lon="14.753143"><ele>0.0</ele><time>2026-04-26T08:20:41.913Z</time></trkpt><trkpt lat="40.6734773" lon="14.7532191"><ele>0.0</ele><time>2026-04-26T08:20:47.949Z</time></trkpt><trkpt lat="40.6734265" lon="14.7532866"><ele>0.0</ele><time>2026-04-26T08:20:52.949Z</time></trkpt><trkpt lat="40.6733784" lon="14.7533502"><ele>0.0</ele><time>2026-04-26T08:20:57.983Z</time></trkpt><trkpt lat="40.6733238" lon="14.753421"><ele>0.0</ele><time>2026-04-26T08:21:02.893Z</time></trkpt><trkpt lat="40.67328" lon="14.7534844"><ele>0.0</ele><time>2026-04-26T08:21:06.979Z</time></trkpt><trkpt lat="40.6732257" lon="14.7535535"><ele>0.0</ele><time>2026-04-26T08:21:12.912Z</time></trkpt><trkpt lat="40.6731794" lon="14.7536195"><ele>0.0</ele><time>2026-04-26T08:21:18.949Z</time></trkpt><trkpt lat="40.673124" lon="14.7536855"><ele>0.0</ele><time>2026-04-26T08:21:23.949Z</time></trkpt><trkpt lat="40.6730758" lon="14.7537529"><ele>0.0</ele><time>2026-04-26T08:21:28.992Z</time></trkpt><trkpt lat="40.6730289" lon="14.7538211"><ele>0.0</ele><time>2026-04-26T08:21:33.81Z</time></trkpt><trkpt lat="40.6729815" lon="14.7538946"><ele>0.0</ele><time>2026-04-26T08:21:38.949Z</time></trkpt><trkpt lat="40.6729289" lon="14.7539528"><ele>0.0</ele><time>2026-04-26T08:21:43.949Z</time></trkpt><trkpt lat="40.6728829" lon="14.7540269"><ele>0.0</ele><time>2026-04-26T08:21:48.994Z</time></trkpt><trkpt lat="40.6728308" lon="14.7540906"><ele>0.0</ele><time>2026-04-26T08:21:53.862Z</time></trkpt><trkpt lat="40.6727869" lon="14.7541597"><ele>0.0</ele><time>2026-04-26T08:21:58.949Z</time></trkpt><trkpt lat="40.6727527" lon="14.7542322"><ele>0.0</ele><time>2026-04-26T08:22:02.964Z</time></trkpt><trkpt lat="40.6726981" lon="14.7543135"><ele>0.14285714285714285</ele><time>2026-04-26T08:22:06.985Z</time></trkpt><trkpt lat="40.6726573" lon="14.7543805"><ele>0.2857142857142857</ele><time>2026-04-26T08:22:10.949Z</time></trkpt><trkpt lat="40.6726108" lon="14.75445"><ele>0.42857142857142855</ele><time>2026-04-26T08:22:16.949Z</time></trkpt><trkpt lat="40.6725656" lon="14.7545268"><ele>0.5714285714285714</ele><time>2026-04-26T08:22:21.949Z</time></trkpt><trkpt lat="40.6725251" lon="14.7546035"><ele>0.7142857142857142</ele><time>2026-04-26T08:22:25.949Z</time></trkpt><trkpt lat="40.6724848" lon="14.7546702"><ele>0.8571428571428571</ele><time>2026-04-26T08:22:30.949Z</time></trkpt><trkpt lat="40.672435" lon="14.7547345"><ele>1.0</ele><time>2026-04-26T08:22:35.983Z</time></trkpt><trkpt lat="40.6723882" lon="14.7547931"><ele>1.0</ele><time>2026-04-26T08:22:40.893Z</time></trkpt><trkpt lat="40.6723415" lon="14.7548573"><ele>0.9999999999999999</ele><time>2026-04-26T08:22:45.949Z</time></trkpt><trkpt lat="40.6722858" lon="14.7549284"><ele>1.0</ele><time>2026-04-26T08:22:50.949Z</time></trkpt><trkpt lat="40.6722359" lon="14.7549969"><ele>1.0</ele><time>2026-04-26T08:22:54.949Z</time></trkpt><trkpt lat="40.6721851" lon="14.7550643"><ele>0.9999999999999999</ele><time>2026-04-26T08:23:00.96Z</time></trkpt><trkpt lat="40.6721361" lon="14.7551236"><ele>1.0</ele><time>2026-04-26T08:23:06.992Z</time></trkpt><trkpt lat="40.6720685" lon="14.7551949"><ele>1.0</ele><time>2026-04-26T08:23:11.949Z</time></trkpt><trkpt lat="40.6720031" lon="14.755161"><ele>1.0</ele><time>2026-04-26T08:23:17.949Z</time></trkpt><trkpt lat="40.6719363" lon="14.7550933"><ele>0.9999999999999999</ele><time>2026-04-26T08:23:20.962Z</time></trkpt><trkpt lat="40.6718735" lon="14.7550342"><ele>1.0</ele><time>2026-04-26T08:23:23.949Z</time></trkpt><trkpt lat="40.6718176" lon="14.754988"><ele>1.0</ele><time>2026-04-26T08:23:26.972Z</time></trkpt><trkpt lat="40.6717641" lon="14.7549439"><ele>0.9999999999999999</ele><time>2026-04-26T08:23:30.951Z</time></trkpt><trkpt lat="40.6717018" lon="14.754903"><ele>1.0</ele><time>2026-04-26T08:23:35.99Z</time></trkpt><trkpt lat="40.6716415" lon="14.7548572"><ele>1.0</ele><time>2026-04-26T08:23:39.949Z</time></trkpt><trkpt lat="40.671579" lon="14.7548164"><ele>1.0</ele><time>2026-04-26T08:23:44.986Z</time></trkpt><trkpt lat="40.6715276" lon="14.7547589"><ele>0.9999999999999999</ele><time>2026-04-26T08:23:49.851Z</time></trkpt><trkpt lat="40.6714701" lon="14.7547174"><ele>1.0</ele><time>2026-04-26T08:23:53.853Z</time></trkpt><trkpt lat="40.6714021" lon="14.7546669"><ele>1.0</ele><time>2026-04-26T08:23:58.956Z</time></trkpt><trkpt lat="40.6713401" lon="14.7546199"><ele>0.9999999999999999</ele><time>2026-04-26T08:24:03.893Z</time></trkpt><trkpt lat="40.671276" lon="14.75458"><ele>1.0</ele><time>2026-04-26T08:24:09.998Z</time></trkpt><trkpt lat="40.6712255" lon="14.7545239"><ele>1.0</ele><time>2026-04-26T08:24:14.949Z</time></trkpt><trkpt lat="40.6711622" lon="14.7544733"><ele>1.0</ele><time>2026-04-26T08:24:19.949Z</time></trkpt><trkpt lat="40.6711007" lon="14.7544279"><ele>0.9999999999999999</ele><time>2026-04-26T08:24:24.99Z</time></trkpt><trkpt lat="40.6710375" lon="14.7543946"><ele>1.0</ele><time>2026-04-26T08:24:28.949Z</time></trkpt><trkpt lat="40.6709744" lon="14.7543509"><ele>1.0</ele><time>2026-04-26T08:24:33.986Z</time></trkpt><trkpt lat="40.6709169" lon="14.7543062"><ele>0.9999999999999999</ele><time>2026-04-26T08:24:39.949Z</time></trkpt><trkpt lat="40.6708552" lon="14.7542383"><ele>1.0</ele><time>2026-04-26T08:24:44.97Z</time></trkpt><trkpt lat="40.6707949" lon="14.7541906"><ele>1.0</ele><time>2026-04-26T08:24:49.967Z</time></trkpt><trkpt lat="40.6707354" lon="14.754151"><ele>1.0</ele><time>2026-04-26T08:24:54.949Z</time></trkpt><trkpt lat="40.6706737" lon="14.7541048"><ele>0.9999999999999999</ele><time>2026-04-26T08:24:59.893Z</time></trkpt><trkpt lat="40.6706162" lon="14.7540679"><ele>1.0</ele><time>2026-04-26T08:25:04.995Z</time></trkpt><trkpt lat="40.6705551" lon="14.7540112"><ele>1.0</ele><time>2026-04-26T08:25:09.969Z</time></trkpt><trkpt lat="40.6704972" lon="14.753969"><ele>0.9999999999999999</ele><time>2026-04-26T08:25:14.949Z</time></trkpt><trkpt lat="40.6704357" lon="14.7539125"><ele>1.0</ele><time>2026-04-26T08:25:19.949Z</time></trkpt><trkpt lat="40.670374" lon="14.7538707"><ele>1.0</ele><time>2026-04-26T08:25:24.997Z</time></trkpt><trkpt lat="40.6703177" lon="14.753821"><ele>0.8571428571428571</ele><time>2026-04-26T08:25:29.971Z</time></trkpt><trkpt lat="40.6702621" lon="14.7537684"><ele>0.7142857142857142</ele><time>2026-04-26T08:25:34.949Z</time></trkpt><trkpt lat="40.6702003" lon="14.7537227"><ele>0.5714285714285714</ele><time>2026-04-26T08:25:38.967Z</time></trkpt><trkpt lat="40.6701386" lon="14.7536704"><ele>0.42857142857142855</ele><time>2026-04-26T08:25:43.953Z</time></trkpt><trkpt lat="40.670079" lon="14.7536234"><ele>0.2857142857142857</ele><time>2026-04-26T08:25:48.949Z</time></trkpt><trkpt lat="40.6700164" lon="14.7535727"><ele>0.14285714285714285</ele><time>2026-04-26T08:25:53.853Z</time></trkpt><trkpt lat="40.6699527" lon="14.7535331"><ele>0.0</ele><time>2026-04-26T08:25:57.949Z</time></trkpt><trkpt lat="40.6699483" lon="14.7534491"><ele>0.0</ele><time>2026-04-26T08:26:06.949Z</time></trkpt><trkpt lat="40.6698696" lon="14.7534304"><ele>0.0</ele><time>2026-04-26T08:26:15.949Z</time></trkpt><trkpt lat="40.669802" lon="14.753386"><ele>0.0</ele><time>2026-04-26T08:26:20.983Z</time></trkpt><trkpt lat="40.6697308" lon="14.7533368"><ele>0.0</ele><time>2026-04-26T08:26:25.957Z</time></trkpt><trkpt lat="40.6696697" lon="14.7533075"><ele>0.0</ele><time>2026-04-26T08:26:29.014Z</time></trkpt><trkpt lat="40.6696059" lon="14.753273"><ele>0.0</ele><time>2026-04-26T08:26:34Z</time></trkpt><trkpt lat="40.6695487" lon="14.7532298"><ele>0.0</ele><time>2026-04-26T08:26:38.974Z</time></trkpt><trkpt lat="40.6694912" lon="14.7531838"><ele>0.0</ele><time>2026-04-26T08:26:42.998Z</time></trkpt><trkpt lat="40.6694389" lon="14.7531337"><ele>0.0</ele><time>2026-04-26T08:26:47.97Z</time></trkpt><trkpt lat="40.6693816" lon="14.7530858"><ele>0.0</ele><time>2026-04-26T08:26:52.949Z</time></trkpt><trkpt lat="40.6693246" lon="14.7530493"><ele>0.0</ele><time>2026-04-26T08:26:56.854Z</time></trkpt><trkpt lat="40.6692521" lon="14.7530163"><ele>0.0</ele><time>2026-04-26T08:27:00.988Z</time></trkpt><trkpt lat="40.6691954" lon="14.7529666"><ele>0.0</ele><time>2026-04-26T08:27:06.949Z</time></trkpt><trkpt lat="40.6691411" lon="14.7529161"><ele>0.0</ele><time>2026-04-26T08:27:11.994Z</time></trkpt><trkpt lat="40.6690842" lon="14.7528728"><ele>0.0</ele><time>2026-04-26T08:27:15.949Z</time></trkpt><trkpt lat="40.6690208" lon="14.7528301"><ele>0.0</ele><time>2026-04-26T08:27:19.949Z</time></trkpt><trkpt lat="40.6689627" lon="14.7527902"><ele>0.0</ele><time>2026-04-26T08:27:24.949Z</time></trkpt><trkpt lat="40.6689053" lon="14.7527369"><ele>0.0</ele><time>2026-04-26T08:27:29.986Z</time></trkpt><trkpt lat="40.668844" lon="14.7527072"><ele>0.0</ele><time>2026-04-26T08:27:33.933Z</time></trkpt><trkpt lat="40.6687878" lon="14.7526538"><ele>0.0</ele><time>2026-04-26T08:27:37.949Z</time></trkpt><trkpt lat="40.6687305" lon="14.7526056"><ele>0.0</ele><time>2026-04-26T08:27:43.532Z</time></trkpt><trkpt lat="40.6686795" lon="14.7525567"><ele>0.0</ele><time>2026-04-26T08:27:47.97Z</time></trkpt><trkpt lat="40.6686228" lon="14.7525195"><ele>0.0</ele><time>2026-04-26T08:27:51.852Z</time></trkpt><trkpt lat="40.6685635" lon="14.7524704"><ele>0.0</ele><time>2026-04-26T08:27:56.973Z</time></trkpt><trkpt lat="40.6685086" lon="14.7524124"><ele>0.0</ele><time>2026-04-26T08:28:01.949Z</time></trkpt><trkpt lat="40.668449" lon="14.752365"><ele>0.0</ele><time>2026-04-26T08:28:06.035Z</time></trkpt><trkpt lat="40.6683916" lon="14.7523224"><ele>0.0</ele><time>2026-04-26T08:28:10.949Z</time></trkpt><trkpt lat="40.6683329" lon="14.7522838"><ele>0.0</ele><time>2026-04-26T08:28:15.949Z</time></trkpt><trkpt lat="40.6682774" lon="14.7522299"><ele>0.0</ele><time>2026-04-26T08:28:19.969Z</time></trkpt><trkpt lat="40.6682184" lon="14.7521942"><ele>0.0</ele><time>2026-04-26T08:28:25.01Z</time></trkpt><trkpt lat="40.6681574" lon="14.7521402"><ele>0.0</ele><time>2026-04-26T08:28:29.993Z</time></trkpt><trkpt lat="40.6680985" lon="14.7520886"><ele>0.0</ele><time>2026-04-26T08:28:34.854Z</time></trkpt><trkpt lat="40.668035" lon="14.7520434"><ele>0.0</ele><time>2026-04-26T08:28:38.989Z</time></trkpt><trkpt lat="40.6679713" lon="14.7519882"><ele>0.0</ele><time>2026-04-26T08:28:44.949Z</time></trkpt><trkpt lat="40.6679095" lon="14.7519367"><ele>0.0</ele><time>2026-04-26T08:28:49.995Z</time></trkpt><trkpt lat="40.6678403" lon="14.7518829"><ele>0.0</ele><time>2026-04-26T08:28:54.913Z</time></trkpt><trkpt lat="40.6677821" lon="14.7518482"><ele>0.0</ele><time>2026-04-26T08:28:58.991Z</time></trkpt><trkpt lat="40.6677297" lon="14.7517783"><ele>0.0</ele><time>2026-04-26T08:29:04.949Z</time></trkpt><trkpt lat="40.6676591" lon="14.7517365"><ele>0.0</ele><time>2026-04-26T08:29:09.949Z</time></trkpt><trkpt lat="40.6675966" lon="14.751708"><ele>0.0</ele><time>2026-04-26T08:29:13.893Z</time></trkpt><trkpt lat="40.6675356" lon="14.7516557"><ele>0.0</ele><time>2026-04-26T08:29:17.949Z</time></trkpt><trkpt lat="40.6674719" lon="14.7516229"><ele>0.0</ele><time>2026-04-26T08:29:22.931Z</time></trkpt><trkpt lat="40.6674146" lon="14.7515804"><ele>0.0</ele><time>2026-04-26T08:29:27.99Z</time></trkpt><trkpt lat="40.6673669" lon="14.751525"><ele>0.0</ele><time>2026-04-26T08:29:31.949Z</time></trkpt><trkpt lat="40.6672986" lon="14.7514787"><ele>0.0</ele><time>2026-04-26T08:29:37.012Z</time></trkpt><trkpt lat="40.667239" lon="14.7514294"><ele>0.0</ele><time>2026-04-26T08:29:41.96Z</time></trkpt><trkpt lat="40.6671748" lon="14.7513784"><ele>0.0</ele><time>2026-04-26T08:29:46.949Z</time></trkpt><trkpt lat="40.6671065" lon="14.7513278"><ele>0.0</ele><time>2026-04-26T08:29:51.949Z</time></trkpt><trkpt lat="40.6670576" lon="14.7512705"><ele>0.0</ele><time>2026-04-26T08:29:55.913Z</time></trkpt><trkpt lat="40.6669944" lon="14.7512205"><ele>0.0</ele><time>2026-04-26T08:30:00.95Z</time></trkpt><trkpt lat="40.6669288" lon="14.7511922"><ele>0.0</ele><time>2026-04-26T08:30:06.949Z</time></trkpt><trkpt lat="40.666872" lon="14.7511246"><ele>0.0</ele><time>2026-04-26T08:30:11.991Z</time></trkpt><trkpt lat="40.6668223" lon="14.751068"><ele>0.0</ele><time>2026-04-26T08:30:16.949Z</time></trkpt><trkpt lat="40.6667572" lon="14.7510539"><ele>0.0</ele><time>2026-04-26T08:30:20.949Z</time></trkpt><trkpt lat="40.666697" lon="14.7510166"><ele>0.0</ele><time>2026-04-26T08:30:24.949Z</time></trkpt><trkpt lat="40.6666343" lon="14.7509789"><ele>0.0</ele><time>2026-04-26T08:30:28.95Z</time></trkpt><trkpt lat="40.6665681" lon="14.7509408"><ele>0.0</ele><time>2026-04-26T08:30:34.983Z</time></trkpt><trkpt lat="40.666507" lon="14.7508852"><ele>0.0</ele><time>2026-04-26T08:30:39.911Z</time></trkpt><trkpt lat="40.6664536" lon="14.7508292"><ele>0.0</ele><time>2026-04-26T08:30:43.979Z</time></trkpt><trkpt lat="40.6663874" lon="14.7507842"><ele>0.0</ele><time>2026-04-26T08:30:49.949Z</time></trkpt><trkpt lat="40.6663376" lon="14.7507288"><ele>0.0</ele><time>2026-04-26T08:30:54.985Z</time></trkpt><trkpt lat="40.6662688" lon="14.7506741"><ele>0.0</ele><time>2026-04-26T08:30:59.953Z</time></trkpt><trkpt lat="40.6662084" lon="14.7506333"><ele>0.0</ele><time>2026-04-26T08:31:03.981Z</time></trkpt><trkpt lat="40.6661459" lon="14.7505931"><ele>0.0</ele><time>2026-04-26T08:31:08.955Z</time></trkpt><trkpt lat="40.6660903" lon="14.7505451"><ele>0.0</ele><time>2026-04-26T08:31:13.949Z</time></trkpt><trkpt lat="40.6660284" lon="14.7504949"><ele>0.0</ele><time>2026-04-26T08:31:18.949Z</time></trkpt><trkpt lat="40.6659638" lon="14.7504479"><ele>0.0</ele><time>2026-04-26T08:31:22.949Z</time></trkpt><trkpt lat="40.665903" lon="14.7504112"><ele>0.0</ele><time>2026-04-26T08:31:27.994Z</time></trkpt><trkpt lat="40.6658452" lon="14.7503508"><ele>0.0</ele><time>2026-04-26T08:31:33.949Z</time></trkpt><trkpt lat="40.6657768" lon="14.750323"><ele>0.0</ele><time>2026-04-26T08:31:38.889Z</time></trkpt><trkpt lat="40.6657112" lon="14.7502799"><ele>0.0</ele><time>2026-04-26T08:31:43.969Z</time></trkpt><trkpt lat="40.6656513" lon="14.7502221"><ele>0.0</ele><time>2026-04-26T08:31:49.949Z</time></trkpt><trkpt lat="40.6655927" lon="14.7501499"><ele>0.0</ele><time>2026-04-26T08:31:53.949Z</time></trkpt><trkpt lat="40.665532" lon="14.7500944"><ele>0.0</ele><time>2026-04-26T08:31:58.949Z</time></trkpt><trkpt lat="40.6654804" lon="14.750035"><ele>0.0</ele><time>2026-04-26T08:32:03.949Z</time></trkpt><trkpt lat="40.6654199" lon="14.749999"><ele>0.0</ele><time>2026-04-26T08:32:07.949Z</time></trkpt><trkpt lat="40.66536" lon="14.7499607"><ele>0.0</ele><time>2026-04-26T08:32:12.985Z</time></trkpt><trkpt lat="40.6652999" lon="14.7499053"><ele>0.0</ele><time>2026-04-26T08:32:17.959Z</time></trkpt><trkpt lat="40.6652401" lon="14.7498465"><ele>0.0</ele><time>2026-04-26T08:32:22.949Z</time></trkpt><trkpt lat="40.6651804" lon="14.7498017"><ele>0.0</ele><time>2026-04-26T08:32:27.949Z</time></trkpt><trkpt lat="40.6651163" lon="14.749755"><ele>0.0</ele><time>2026-04-26T08:32:32.912Z</time></trkpt><trkpt lat="40.6650632" lon="14.749695"><ele>0.0</ele><time>2026-04-26T08:32:37.961Z</time></trkpt><trkpt lat="40.6650099" lon="14.7496402"><ele>0.0</ele><time>2026-04-26T08:32:43.994Z</time></trkpt><trkpt lat="40.664956" lon="14.7495676"><ele>0.0</ele><time>2026-04-26T08:32:48.991Z</time></trkpt><trkpt lat="40.6648975" lon="14.7495204"><ele>0.0</ele><time>2026-04-26T08:32:53.949Z</time></trkpt><trkpt lat="40.6648505" lon="14.7494387"><ele>0.0</ele><time>2026-04-26T08:32:58.949Z</time></trkpt><trkpt lat="40.6648004" lon="14.7493634"><ele>0.0</ele><time>2026-04-26T08:33:03.91Z</time></trkpt><trkpt lat="40.6647456" lon="14.7492962"><ele>0.0</ele><time>2026-04-26T08:33:08.97Z</time></trkpt><trkpt lat="40.6646991" lon="14.7492299"><ele>0.0</ele><time>2026-04-26T08:33:13.949Z</time></trkpt><trkpt lat="40.6646511" lon="14.7491606"><ele>0.0</ele><time>2026-04-26T08:33:18.949Z</time></trkpt><trkpt lat="40.6646124" lon="14.749092"><ele>0.0</ele><time>2026-04-26T08:33:23.949Z</time></trkpt><trkpt lat="40.6645668" lon="14.7490095"><ele>0.0</ele><time>2026-04-26T08:33:28.973Z</time></trkpt><trkpt lat="40.6645544" lon="14.7489225"><ele>0.0</ele><time>2026-04-26T08:33:32.949Z</time></trkpt><trkpt lat="40.6645188" lon="14.7488514"><ele>0.0</ele><time>2026-04-26T08:33:37.969Z</time></trkpt><trkpt lat="40.6644801" lon="14.7487717"><ele>0.0</ele><time>2026-04-26T08:33:42.949Z</time></trkpt><trkpt lat="40.6644549" lon="14.7486924"><ele>0.0</ele><time>2026-04-26T08:33:46.952Z</time></trkpt><trkpt lat="40.6644328" lon="14.7486083"><ele>0.0</ele><time>2026-04-26T08:33:51.996Z</time></trkpt><trkpt lat="40.6644011" lon="14.7485327"><ele>0.0</ele><time>2026-04-26T08:33:56.949Z</time></trkpt><trkpt lat="40.6643724" lon="14.7484414"><ele>0.0</ele><time>2026-04-26T08:34:01.997Z</time></trkpt><trkpt lat="40.664363" lon="14.7483513"><ele>0.0</ele><time>2026-04-26T08:34:06.967Z</time></trkpt><trkpt lat="40.6643478" lon="14.7482612"><ele>0.0</ele><time>2026-04-26T08:34:11.948Z</time></trkpt><trkpt lat="40.6643229" lon="14.7481666"><ele>0.0</ele><time>2026-04-26T08:34:16.949Z</time></trkpt><trkpt lat="40.6643022" lon="14.7480805"><ele>0.0</ele><time>2026-04-26T08:34:21.995Z</time></trkpt><trkpt lat="40.6642876" lon="14.7479964"><ele>0.0</ele><time>2026-04-26T08:34:26.991Z</time></trkpt><trkpt lat="40.6642739" lon="14.7479117"><ele>0.0</ele><time>2026-04-26T08:34:31.95Z</time></trkpt><trkpt lat="40.6642583" lon="14.7478186"><ele>0.0</ele><time>2026-04-26T08:34:36.949Z</time></trkpt><trkpt lat="40.6642481" lon="14.7477222"><ele>0.0</ele><time>2026-04-26T08:34:41.87Z</time></trkpt><trkpt lat="40.6642332" lon="14.7476238"><ele>0.0</ele><time>2026-04-26T08:34:46.994Z</time></trkpt><trkpt lat="40.6642299" lon="14.7475403"><ele>0.0</ele><time>2026-04-26T08:34:51.949Z</time></trkpt><trkpt lat="40.664206" lon="14.747443"><ele>0.0</ele><time>2026-04-26T08:34:56.984Z</time></trkpt><trkpt lat="40.664196" lon="14.7473513"><ele>0.0</ele><time>2026-04-26T08:35:01.891Z</time></trkpt><trkpt lat="40.6641759" lon="14.7472673"><ele>0.0</ele><time>2026-04-26T08:35:06.974Z</time></trkpt><trkpt lat="40.6641587" lon="14.7471856"><ele>0.0</ele><time>2026-04-26T08:35:10.949Z</time></trkpt><trkpt lat="40.6641334" lon="14.7470924"><ele>0.0</ele><time>2026-04-26T08:35:15.97Z</time></trkpt><trkpt lat="40.6641253" lon="14.7469937"><ele>0.0</ele><time>2026-04-26T08:35:27.949Z</time></trkpt><trkpt lat="40.6641151" lon="14.7469043"><ele>0.0</ele><time>2026-04-26T08:35:31.851Z</time></trkpt><trkpt lat="40.6640904" lon="14.7468128"><ele>0.0</ele><time>2026-04-26T08:35:37.983Z</time></trkpt><trkpt lat="40.6640777" lon="14.7467304"><ele>0.0</ele><time>2026-04-26T08:35:42.957Z</time></trkpt><trkpt lat="40.6640675" lon="14.7466393"><ele>0.0</ele><time>2026-04-26T08:35:47.949Z</time></trkpt><trkpt lat="40.6640541" lon="14.7465403"><ele>0.0</ele><time>2026-04-26T08:35:52.949Z</time></trkpt><trkpt lat="40.6640238" lon="14.7464453"><ele>0.0</ele><time>2026-04-26T08:35:58.949Z</time></trkpt><trkpt lat="40.6640168" lon="14.7463585"><ele>0.0</ele><time>2026-04-26T08:36:02.96Z</time></trkpt><trkpt lat="40.6640139" lon="14.7462679"><ele>0.0</ele><time>2026-04-26T08:36:06.999Z</time></trkpt><trkpt lat="40.6640006" lon="14.7461833"><ele>0.0</ele><time>2026-04-26T08:36:11.955Z</time></trkpt><trkpt lat="40.6639877" lon="14.7460835"><ele>0.0</ele><time>2026-04-26T08:36:17.988Z</time></trkpt><trkpt lat="40.6639725" lon="14.7459881"><ele>0.0</ele><time>2026-04-26T08:36:22.892Z</time></trkpt><trkpt lat="40.6639468" lon="14.7458926"><ele>0.0</ele><time>2026-04-26T08:36:27.949Z</time></trkpt><trkpt lat="40.6639186" lon="14.7458157"><ele>0.0</ele><time>2026-04-26T08:36:32.949Z</time></trkpt><trkpt lat="40.6639148" lon="14.745712"><ele>0.0</ele><time>2026-04-26T08:36:37.953Z</time></trkpt><trkpt lat="40.6638978" lon="14.7456111"><ele>0.0</ele><time>2026-04-26T08:36:42.964Z</time></trkpt><trkpt lat="40.6638825" lon="14.7455246"><ele>0.0</ele><time>2026-04-26T08:36:47.949Z</time></trkpt><trkpt lat="40.6638685" lon="14.7454335"><ele>0.0</ele><time>2026-04-26T08:36:52.949Z</time></trkpt><trkpt lat="40.6638509" lon="14.7453538"><ele>0.0</ele><time>2026-04-26T08:36:57.993Z</time></trkpt><trkpt lat="40.6638476" lon="14.7452484"><ele>0.0</ele><time>2026-04-26T08:37:02.967Z</time></trkpt><trkpt lat="40.6638306" lon="14.7451599"><ele>0.0</ele><time>2026-04-26T08:37:07.949Z</time></trkpt><trkpt lat="40.6638184" lon="14.7450612"><ele>0.0</ele><time>2026-04-26T08:37:13.973Z</time></trkpt><trkpt lat="40.6638019" lon="14.744975"><ele>0.0</ele><time>2026-04-26T08:37:17.995Z</time></trkpt><trkpt lat="40.6637894" lon="14.7448932"><ele>0.0</ele><time>2026-04-26T08:37:22.969Z</time></trkpt><trkpt lat="40.6637858" lon="14.744799"><ele>0.0</ele><time>2026-04-26T08:37:27.911Z</time></trkpt><trkpt lat="40.6637665" lon="14.7447163"><ele>0.0</ele><time>2026-04-26T08:37:32.011Z</time></trkpt><trkpt lat="40.663752" lon="14.7446307"><ele>0.0</ele><time>2026-04-26T08:37:36.949Z</time></trkpt><trkpt lat="40.6637351" lon="14.7445462"><ele>0.0</ele><time>2026-04-26T08:37:40.96Z</time></trkpt><trkpt lat="40.6637246" lon="14.7444614"><ele>0.0</ele><time>2026-04-26T08:37:45.949Z</time></trkpt><trkpt lat="40.663709" lon="14.7443626"><ele>0.0</ele><time>2026-04-26T08:37:50.891Z</time></trkpt><trkpt lat="40.6637039" lon="14.7442776"><ele>0.0</ele><time>2026-04-26T08:37:54.949Z</time></trkpt></trkseg><trkseg><trkpt lat="40.669924" lon="14.7810154"><ele>7.428571428571429</ele><time>2026-04-26T09:47:57.943Z</time></trkpt><trkpt lat="40.6698798" lon="14.7810992"><ele>7.857142857142858</ele><time>2026-04-26T09:48:03.888Z</time></trkpt><trkpt lat="40.6698384" lon="14.781178"><ele>8.285714285714285</ele><time>2026-04-26T09:48:07.892Z</time></trkpt><trkpt lat="40.6697993" lon="14.7812487"><ele>8.714285714285715</ele><time>2026-04-26T09:48:12.973Z</time></trkpt><trkpt lat="40.6697463" lon="14.7813139"><ele>9.142857142857142</ele><time>2026-04-26T09:48:18.834Z</time></trkpt><trkpt lat="40.6697132" lon="14.7813945"><ele>9.571428571428571</ele><time>2026-04-26T09:48:23.981Z</time></trkpt><trkpt lat="40.6696863" lon="14.7814791"><ele>10.0</ele><time>2026-04-26T09:48:28.915Z</time></trkpt><trkpt lat="40.6696549" lon="14.7815615"><ele>10.0</ele><time>2026-04-26T09:48:34.988Z</time></trkpt><trkpt lat="40.6696115" lon="14.7816433"><ele>10.0</ele><time>2026-04-26T09:48:39.963Z</time></trkpt><trkpt lat="40.6695723" lon="14.7817138"><ele>10.0</ele><time>2026-04-26T09:48:43.985Z</time></trkpt><trkpt lat="40.6695132" lon="14.7817641"><ele>10.0</ele><time>2026-04-26T09:48:48.876Z</time></trkpt><trkpt lat="40.6694946" lon="14.78185"><ele>10.0</ele><time>2026-04-26T09:48:52.981Z</time></trkpt><trkpt lat="40.6694564" lon="14.7819415"><ele>10.0</ele><time>2026-04-26T09:48:57.818Z</time></trkpt><trkpt lat="40.6694159" lon="14.7820274"><ele>10.0</ele><time>2026-04-26T09:49:01.977Z</time></trkpt><trkpt lat="40.6693712" lon="14.7820861"><ele>9.428571428571429</ele><time>2026-04-26T09:49:07.903Z</time></trkpt><trkpt lat="40.6693352" lon="14.7821733"><ele>8.857142857142858</ele><time>2026-04-26T09:49:13.977Z</time></trkpt><trkpt lat="40.6692948" lon="14.7822395"><ele>8.285714285714285</ele><time>2026-04-26T09:49:18.905Z</time></trkpt><trkpt lat="40.6692563" lon="14.7823157"><ele>7.7142857142857135</ele><time>2026-04-26T09:49:22.927Z</time></trkpt><trkpt lat="40.6692131" lon="14.7823827"><ele>7.142857142857142</ele><time>2026-04-26T09:49:27.584Z</time></trkpt><trkpt lat="40.6691719" lon="14.782457"><ele>6.571428571428571</ele><time>2026-04-26T09:49:32.981Z</time></trkpt><trkpt lat="40.6691288" lon="14.7825325"><ele>6.0</ele><time>2026-04-26T09:49:37.955Z</time></trkpt><trkpt lat="40.6690872" lon="14.7826115"><ele>6.285714285714285</ele><time>2026-04-26T09:49:42.93Z</time></trkpt><trkpt lat="40.6690431" lon="14.7826971"><ele>6.571428571428571</ele><time>2026-04-26T09:49:48.962Z</time></trkpt><trkpt lat="40.6690082" lon="14.7827687"><ele>6.857142857142857</ele><time>2026-04-26T09:49:53.936Z</time></trkpt><trkpt lat="40.6689703" lon="14.782845"><ele>7.142857142857142</ele><time>2026-04-26T09:49:59.969Z</time></trkpt><trkpt lat="40.6689312" lon="14.7829136"><ele>7.428571428571428</ele><time>2026-04-26T09:50:04.943Z</time></trkpt><trkpt lat="40.6688874" lon="14.782987"><ele>7.7142857142857135</ele><time>2026-04-26T09:50:08.965Z</time></trkpt><trkpt lat="40.6688363" lon="14.7830545"><ele>8.0</ele><time>2026-04-26T09:50:14.997Z</time></trkpt><trkpt lat="40.6687972" lon="14.7831453"><ele>8.0</ele><time>2026-04-26T09:50:20.935Z</time></trkpt><trkpt lat="40.6687625" lon="14.7832222"><ele>7.999999999999999</ele><time>2026-04-26T09:50:26.004Z</time></trkpt><trkpt lat="40.6687291" lon="14.7833077"><ele>8.0</ele><time>2026-04-26T09:50:30.978Z</time></trkpt><trkpt lat="40.6686945" lon="14.7833879"><ele>8.0</ele><time>2026-04-26T09:50:35Z</time></trkpt><trkpt lat="40.6686557" lon="14.7834628"><ele>7.999999999999999</ele><time>2026-04-26T09:50:38.915Z</time></trkpt><trkpt lat="40.6686186" lon="14.7835309"><ele>8.0</ele><time>2026-04-26T09:50:43.995Z</time></trkpt><trkpt lat="40.6685796" lon="14.7836122"><ele>8.0</ele><time>2026-04-26T09:50:48.922Z</time></trkpt><trkpt lat="40.6685407" lon="14.7836835"><ele>7.428571428571428</ele><time>2026-04-26T09:50:53.878Z</time></trkpt><trkpt lat="40.6685017" lon="14.7837657"><ele>6.857142857142856</ele><time>2026-04-26T09:50:59.976Z</time></trkpt><trkpt lat="40.6684655" lon="14.7838354"><ele>6.285714285714286</ele><time>2026-04-26T09:51:03.9Z</time></trkpt><trkpt lat="40.6684206" lon="14.7839115"><ele>5.7142857142857135</ele><time>2026-04-26T09:51:08.972Z</time></trkpt><trkpt lat="40.6683796" lon="14.7839875"><ele>5.142857142857142</ele><time>2026-04-26T09:51:14.898Z</time></trkpt><trkpt lat="40.6683376" lon="14.7840673"><ele>4.571428571428571</ele><time>2026-04-26T09:51:19.875Z</time></trkpt><trkpt lat="40.6682963" lon="14.7841313"><ele>4.0</ele><time>2026-04-26T09:51:22.942Z</time></trkpt><trkpt lat="40.6682466" lon="14.7842004"><ele>3.9999999999999996</ele><time>2026-04-26T09:51:27.916Z</time></trkpt><trkpt lat="40.6682128" lon="14.7842889"><ele>4.0</ele><time>2026-04-26T09:51:32.996Z</time></trkpt><trkpt lat="40.6682491" lon="14.7843808"><ele>4.0</ele><time>2026-04-26T09:52:15.836Z</time></trkpt><trkpt lat="40.6683178" lon="14.78444"><ele>4.0</ele><time>2026-04-26T09:52:18.927Z</time></trkpt><trkpt lat="40.6683155" lon="14.784536"><ele>3.9999999999999996</ele><time>2026-04-26T09:52:26.97Z</time></trkpt><trkpt lat="40.6683545" lon="14.784617"><ele>4.0</ele><time>2026-04-26T09:52:33.003Z</time></trkpt><trkpt lat="40.668416" lon="14.7846699"><ele>4.142857142857142</ele><time>2026-04-26T09:52:38.929Z</time></trkpt><trkpt lat="40.6684735" lon="14.7847287"><ele>4.285714285714286</ele><time>2026-04-26T09:52:43.903Z</time></trkpt><trkpt lat="40.6685312" lon="14.7847917"><ele>4.428571428571429</ele><time>2026-04-26T09:52:48.983Z</time></trkpt><trkpt lat="40.6685848" lon="14.7848454"><ele>4.571428571428571</ele><time>2026-04-26T09:52:53.878Z</time></trkpt><trkpt lat="40.6686462" lon="14.7848977"><ele>4.714285714285714</ele><time>2026-04-26T09:52:58.932Z</time></trkpt><trkpt lat="40.6686965" lon="14.7849686"><ele>4.857142857142857</ele><time>2026-04-26T09:53:03.906Z</time></trkpt><trkpt lat="40.6687582" lon="14.7850239"><ele>5.0</ele><time>2026-04-26T09:53:08.997Z</time></trkpt><trkpt lat="40.6688214" lon="14.7850757"><ele>5.571428571428571</ele><time>2026-04-26T09:53:13.96Z</time></trkpt><trkpt lat="40.6688748" lon="14.7851326"><ele>6.142857142857143</ele><time>2026-04-26T09:53:18.916Z</time></trkpt><trkpt lat="40.6689313" lon="14.7851733"><ele>6.714285714285715</ele><time>2026-04-26T09:53:23.908Z</time></trkpt><trkpt lat="40.6689828" lon="14.7852279"><ele>7.2857142857142865</ele><time>2026-04-26T09:53:30.999Z</time></trkpt><trkpt lat="40.669047" lon="14.7852734"><ele>7.857142857142858</ele><time>2026-04-26T09:53:36.976Z</time></trkpt><trkpt lat="40.6691124" lon="14.7853326"><ele>8.428571428571429</ele><time>2026-04-26T09:53:42.005Z</time></trkpt><trkpt lat="40.6691844" lon="14.7853707"><ele>9.0</ele><time>2026-04-26T09:53:46.939Z</time></trkpt><trkpt lat="40.6692345" lon="14.78532"><ele>9.000000000000002</ele><time>2026-04-26T09:53:51.953Z</time></trkpt><trkpt lat="40.6692801" lon="14.7852402"><ele>9.0</ele><time>2026-04-26T09:53:57.986Z</time></trkpt><trkpt lat="40.669329" lon="14.7851747"><ele>9.0</ele><time>2026-04-26T09:54:01.996Z</time></trkpt><trkpt lat="40.6693695" lon="14.7851067"><ele>9.0</ele><time>2026-04-26T09:54:06.982Z</time></trkpt><trkpt lat="40.6694148" lon="14.7850331"><ele>9.0</ele><time>2026-04-26T09:54:13.898Z</time></trkpt><trkpt lat="40.6694597" lon="14.7849551"><ele>9.000000000000002</ele><time>2026-04-26T09:54:19.999Z</time></trkpt><trkpt lat="40.6695087" lon="14.7848797"><ele>9.0</ele><time>2026-04-26T09:54:24.973Z</time></trkpt><trkpt lat="40.6695635" lon="14.784802"><ele>9.142857142857144</ele><time>2026-04-26T09:54:31.006Z</time></trkpt><trkpt lat="40.6695994" lon="14.7847056"><ele>9.285714285714286</ele><time>2026-04-26T09:54:34.922Z</time></trkpt><trkpt lat="40.6696309" lon="14.7846065"><ele>9.428571428571429</ele><time>2026-04-26T09:54:38.942Z</time></trkpt><trkpt lat="40.6696715" lon="14.7845277"><ele>9.571428571428573</ele><time>2026-04-26T09:54:42.976Z</time></trkpt><trkpt lat="40.6697129" lon="14.7844588"><ele>9.714285714285715</ele><time>2026-04-26T09:54:46.898Z</time></trkpt><trkpt lat="40.6697487" lon="14.7843866"><ele>9.857142857142858</ele><time>2026-04-26T09:54:51.961Z</time></trkpt><trkpt lat="40.6697928" lon="14.7843156"><ele>10.0</ele><time>2026-04-26T09:54:58.946Z</time></trkpt><trkpt lat="40.6698329" lon="14.7842287"><ele>9.714285714285714</ele><time>2026-04-26T09:55:03.94Z</time></trkpt><trkpt lat="40.6698678" lon="14.7841589"><ele>9.428571428571429</ele><time>2026-04-26T09:55:07.941Z</time></trkpt><trkpt lat="40.6699113" lon="14.7840792"><ele>9.142857142857142</ele><time>2026-04-26T09:55:12.916Z</time></trkpt><trkpt lat="40.6699506" lon="14.7840133"><ele>8.857142857142858</ele><time>2026-04-26T09:55:17.995Z</time></trkpt><trkpt lat="40.6699889" lon="14.7839451"><ele>8.571428571428571</ele><time>2026-04-26T09:55:23.922Z</time></trkpt><trkpt lat="40.6700277" lon="14.7838717"><ele>8.285714285714285</ele><time>2026-04-26T09:55:28.879Z</time></trkpt><trkpt lat="40.6700689" lon="14.7838006"><ele>8.0</ele><time>2026-04-26T09:55:32.918Z</time></trkpt><trkpt lat="40.6701105" lon="14.78372"><ele>8.0</ele><time>2026-04-26T09:55:36.939Z</time></trkpt><trkpt lat="40.6701588" lon="14.7836491"><ele>7.999999999999999</ele><time>2026-04-26T09:55:42.972Z</time></trkpt><trkpt lat="40.6701981" lon="14.7835709"><ele>8.0</ele><time>2026-04-26T09:55:50.909Z</time></trkpt><trkpt lat="40.6702402" lon="14.7834856"><ele>8.0</ele><time>2026-04-26T09:55:55.838Z</time></trkpt><trkpt lat="40.6702941" lon="14.7834338"><ele>7.999999999999999</ele><time>2026-04-26T09:55:58.952Z</time></trkpt><trkpt lat="40.6703473" lon="14.783385"><ele>8.0</ele><time>2026-04-26T09:56:02.974Z</time></trkpt><trkpt lat="40.6704107" lon="14.7834432"><ele>8.0</ele><time>2026-04-26T09:56:06.89Z</time></trkpt><trkpt lat="40.6704624" lon="14.7834947"><ele>8.571428571428571</ele><time>2026-04-26T09:56:11.017Z</time></trkpt><trkpt lat="40.6705213" lon="14.7835429"><ele>9.142857142857142</ele><time>2026-04-26T09:56:15.991Z</time></trkpt><trkpt lat="40.6705775" lon="14.7835863"><ele>9.714285714285714</ele><time>2026-04-26T09:56:21.918Z</time></trkpt><trkpt lat="40.6706336" lon="14.7836355"><ele>10.285714285714285</ele><time>2026-04-26T09:56:33.983Z</time></trkpt><trkpt lat="40.670704" lon="14.7836547"><ele>10.857142857142858</ele><time>2026-04-26T09:56:38.957Z</time></trkpt><trkpt lat="40.6707654" lon="14.7836835"><ele>11.428571428571427</ele><time>2026-04-26T09:56:43.958Z</time></trkpt><trkpt lat="40.6708369" lon="14.7836601"><ele>12.0</ele><time>2026-04-26T09:56:49.963Z</time></trkpt><trkpt lat="40.6709184" lon="14.7836567"><ele>11.999999999999998</ele><time>2026-04-26T09:56:54.937Z</time></trkpt><trkpt lat="40.6709771" lon="14.7836091"><ele>12.0</ele><time>2026-04-26T09:56:57.9Z</time></trkpt><trkpt lat="40.6710247" lon="14.7835334"><ele>12.0</ele><time>2026-04-26T09:57:02.98Z</time></trkpt><trkpt lat="40.6710688" lon="14.7834673"><ele>12.0</ele><time>2026-04-26T09:57:07.954Z</time></trkpt><trkpt lat="40.6711105" lon="14.7834018"><ele>12.0</ele><time>2026-04-26T09:57:13.987Z</time></trkpt><trkpt lat="40.6711499" lon="14.7833268"><ele>11.999999999999998</ele><time>2026-04-26T09:57:19.913Z</time></trkpt><trkpt lat="40.6711881" lon="14.7832538"><ele>12.0</ele><time>2026-04-26T09:57:25.946Z</time></trkpt><trkpt lat="40.6712252" lon="14.783178"><ele>12.142857142857142</ele><time>2026-04-26T09:57:31.957Z</time></trkpt><trkpt lat="40.6712671" lon="14.7830938"><ele>12.285714285714285</ele><time>2026-04-26T09:57:36.959Z</time></trkpt><trkpt lat="40.6713135" lon="14.7830356"><ele>12.428571428571427</ele><time>2026-04-26T09:57:41.926Z</time></trkpt><trkpt lat="40.6713254" lon="14.782954"><ele>12.571428571428571</ele><time>2026-04-26T09:57:47.958Z</time></trkpt><trkpt lat="40.6713427" lon="14.7828703"><ele>12.714285714285715</ele><time>2026-04-26T09:57:51.98Z</time></trkpt><trkpt lat="40.6713876" lon="14.7827998"><ele>12.857142857142856</ele><time>2026-04-26T09:57:56.954Z</time></trkpt><trkpt lat="40.6714268" lon="14.7827282"><ele>13.0</ele><time>2026-04-26T09:58:05.899Z</time></trkpt><trkpt lat="40.6714568" lon="14.7826431"><ele>13.0</ele><time>2026-04-26T09:58:10.924Z</time></trkpt><trkpt lat="40.6714727" lon="14.782557"><ele>13.0</ele><time>2026-04-26T09:58:16.956Z</time></trkpt><trkpt lat="40.6715081" lon="14.7824725"><ele>13.0</ele><time>2026-04-26T09:58:22.988Z</time></trkpt><trkpt lat="40.6715363" lon="14.7823888"><ele>13.0</ele><time>2026-04-26T09:58:27.962Z</time></trkpt><trkpt lat="40.6715616" lon="14.782298"><ele>13.0</ele><time>2026-04-26T09:58:33.995Z</time></trkpt><trkpt lat="40.6715822" lon="14.7822187"><ele>13.0</ele><time>2026-04-26T09:58:39.921Z</time></trkpt><trkpt lat="40.6716077" lon="14.7821302"><ele>13.0</ele><time>2026-04-26T09:58:45.953Z</time></trkpt><trkpt lat="40.6716281" lon="14.7820488"><ele>13.0</ele><time>2026-04-26T09:58:50.936Z</time></trkpt><trkpt lat="40.6716516" lon="14.7819623"><ele>13.0</ele><time>2026-04-26T09:58:56.96Z</time></trkpt><trkpt lat="40.6716736" lon="14.7818819"><ele>13.0</ele><time>2026-04-26T09:59:02.992Z</time></trkpt><trkpt lat="40.671704" lon="14.7817963"><ele>13.0</ele><time>2026-04-26T09:59:08.918Z</time></trkpt><trkpt lat="40.671737" lon="14.7817182"><ele>13.0</ele><time>2026-04-26T09:59:13.893Z</time></trkpt><trkpt lat="40.6717685" lon="14.781634"><ele>13.0</ele><time>2026-04-26T09:59:18.972Z</time></trkpt><trkpt lat="40.6717824" lon="14.7815387"><ele>13.0</ele><time>2026-04-26T09:59:25.957Z</time></trkpt><trkpt lat="40.6717939" lon="14.7814393"><ele>13.142857142857142</ele><time>2026-04-26T09:59:31.037Z</time></trkpt><trkpt lat="40.6718073" lon="14.7813389"><ele>13.285714285714286</ele><time>2026-04-26T09:59:35.336Z</time></trkpt><trkpt lat="40.6718313" lon="14.7812533"><ele>13.428571428571429</ele><time>2026-04-26T09:59:39.877Z</time></trkpt><trkpt lat="40.6718542" lon="14.7811668"><ele>13.571428571428571</ele><time>2026-04-26T09:59:45.007Z</time></trkpt><trkpt lat="40.6718734" lon="14.7810786"><ele>13.714285714285715</ele><time>2026-04-26T09:59:49.981Z</time></trkpt><trkpt lat="40.6719067" lon="14.7809918"><ele>13.857142857142858</ele><time>2026-04-26T09:59:54.918Z</time></trkpt><trkpt lat="40.6719269" lon="14.7808996"><ele>14.0</ele><time>2026-04-26T09:59:58.976Z</time></trkpt><trkpt lat="40.6719514" lon="14.7808197"><ele>14.714285714285715</ele><time>2026-04-26T10:00:02.856Z</time></trkpt><trkpt lat="40.6719743" lon="14.7807376"><ele>15.428571428571429</ele><time>2026-04-26T10:00:07.377Z</time></trkpt><trkpt lat="40.6719904" lon="14.7806541"><ele>16.142857142857142</ele><time>2026-04-26T10:00:12.946Z</time></trkpt><trkpt lat="40.6720089" lon="14.780568"><ele>16.857142857142858</ele><time>2026-04-26T10:00:18.978Z</time></trkpt><trkpt lat="40.6720332" lon="14.7804771"><ele>17.571428571428573</ele><time>2026-04-26T10:00:24.001Z</time></trkpt><trkpt lat="40.672056" lon="14.7803864"><ele>18.285714285714285</ele><time>2026-04-26T10:00:30.016Z</time></trkpt><trkpt lat="40.6720714" lon="14.7802994"><ele>19.0</ele><time>2026-04-26T10:00:34.958Z</time></trkpt><trkpt lat="40.6720956" lon="14.7802218"><ele>18.428571428571427</ele><time>2026-04-26T10:00:39.896Z</time></trkpt><trkpt lat="40.6721113" lon="14.7801335"><ele>17.857142857142858</ele><time>2026-04-26T10:00:46.917Z</time></trkpt><trkpt lat="40.6721327" lon="14.7800438"><ele>17.285714285714285</ele><time>2026-04-26T10:00:52.949Z</time></trkpt><trkpt lat="40.6721481" lon="14.7799515"><ele>16.714285714285715</ele><time>2026-04-26T10:00:58.982Z</time></trkpt><trkpt lat="40.6721708" lon="14.7798649"><ele>16.142857142857142</ele><time>2026-04-26T10:01:04.908Z</time></trkpt><trkpt lat="40.6721913" lon="14.7797674"><ele>15.571428571428573</ele><time>2026-04-26T10:01:09.901Z</time></trkpt><trkpt lat="40.6722263" lon="14.7796757"><ele>15.0</ele><time>2026-04-26T10:01:14.962Z</time></trkpt><trkpt lat="40.6722428" lon="14.7795907"><ele>15.0</ele><time>2026-04-26T10:01:19.014Z</time></trkpt><trkpt lat="40.6722592" lon="14.7795039"><ele>15.0</ele><time>2026-04-26T10:01:22.899Z</time></trkpt><trkpt lat="40.6722742" lon="14.7794186"><ele>15.0</ele><time>2026-04-26T10:01:26.94Z</time></trkpt><trkpt lat="40.6722998" lon="14.7793287"><ele>15.0</ele><time>2026-04-26T10:01:32.001Z</time></trkpt><trkpt lat="40.6723217" lon="14.779247"><ele>15.0</ele><time>2026-04-26T10:01:36.975Z</time></trkpt><trkpt lat="40.6723506" lon="14.7791655"><ele>15.0</ele><time>2026-04-26T10:01:46.876Z</time></trkpt><trkpt lat="40.6723742" lon="14.779088"><ele>15.0</ele><time>2026-04-26T10:01:51.798Z</time></trkpt><trkpt lat="40.6724" lon="14.7790085"><ele>15.0</ele><time>2026-04-26T10:01:55.918Z</time></trkpt><trkpt lat="40.6724276" lon="14.7789202"><ele>15.0</ele><time>2026-04-26T10:02:00.998Z</time></trkpt><trkpt lat="40.6724542" lon="14.7788433"><ele>15.0</ele><time>2026-04-26T10:02:06.924Z</time></trkpt><trkpt lat="40.6724721" lon="14.7787555"><ele>15.0</ele><time>2026-04-26T10:02:12.957Z</time></trkpt><trkpt lat="40.6725052" lon="14.7786763"><ele>15.0</ele><time>2026-04-26T10:02:17.931Z</time></trkpt><trkpt lat="40.6725306" lon="14.7785989"><ele>15.0</ele><time>2026-04-26T10:02:22.916Z</time></trkpt><trkpt lat="40.6725557" lon="14.7785221"><ele>15.0</ele><time>2026-04-26T10:02:27.984Z</time></trkpt><trkpt lat="40.6725817" lon="14.7784452"><ele>15.0</ele><time>2026-04-26T10:02:33.259Z</time></trkpt><trkpt lat="40.6726075" lon="14.7783674"><ele>15.0</ele><time>2026-04-26T10:02:39.557Z</time></trkpt><trkpt lat="40.6726347" lon="14.7782833"><ele>15.0</ele><time>2026-04-26T10:02:44.917Z</time></trkpt><trkpt lat="40.6726683" lon="14.7781989"><ele>15.0</ele><time>2026-04-26T10:02:48.939Z</time></trkpt><trkpt lat="40.672697" lon="14.7781207"><ele>15.0</ele><time>2026-04-26T10:02:52.857Z</time></trkpt><trkpt lat="40.6727207" lon="14.7780319"><ele>15.0</ele><time>2026-04-26T10:02:57.933Z</time></trkpt><trkpt lat="40.6727344" lon="14.7779508"><ele>15.0</ele><time>2026-04-26T10:03:03.14Z</time></trkpt><trkpt lat="40.6727898" lon="14.777897"><ele>15.285714285714286</ele><time>2026-04-26T10:03:08.678Z</time></trkpt><trkpt lat="40.6728606" lon="14.7778902"><ele>15.57142857142857</ele><time>2026-04-26T10:03:12.962Z</time></trkpt><trkpt lat="40.6729292" lon="14.7778922"><ele>15.857142857142856</ele><time>2026-04-26T10:03:17.936Z</time></trkpt><trkpt lat="40.672944" lon="14.7778008"><ele>16.142857142857142</ele><time>2026-04-26T10:03:20.936Z</time></trkpt><trkpt lat="40.6729942" lon="14.7777434"><ele>16.428571428571427</ele><time>2026-04-26T10:03:26.459Z</time></trkpt><trkpt lat="40.6730576" lon="14.7777064"><ele>16.71428571428571</ele><time>2026-04-26T10:03:30.917Z</time></trkpt><trkpt lat="40.6731208" lon="14.7777036"><ele>17.0</ele><time>2026-04-26T10:03:34.975Z</time></trkpt><trkpt lat="40.6731862" lon="14.7777399"><ele>16.999999999999996</ele><time>2026-04-26T10:03:38.996Z</time></trkpt><trkpt lat="40.6732304" lon="14.7778024"><ele>17.0</ele><time>2026-04-26T10:03:41.959Z</time></trkpt><trkpt lat="40.6732766" lon="14.7778691"><ele>17.0</ele><time>2026-04-26T10:03:45.981Z</time></trkpt><trkpt lat="40.6733454" lon="14.7778794"><ele>17.0</ele><time>2026-04-26T10:03:50.856Z</time></trkpt><trkpt lat="40.6733999" lon="14.7779379"><ele>17.0</ele><time>2026-04-26T10:03:56.987Z</time></trkpt><trkpt lat="40.6734351" lon="14.7780208"><ele>16.999999999999996</ele><time>2026-04-26T10:04:00.903Z</time></trkpt><trkpt lat="40.6734786" lon="14.7780808"><ele>17.0</ele><time>2026-04-26T10:04:04.924Z</time></trkpt><trkpt lat="40.6735479" lon="14.7780731"><ele>16.999999999999996</ele><time>2026-04-26T10:05:35.937Z</time></trkpt><trkpt lat="40.6736091" lon="14.7781077"><ele>17.0</ele><time>2026-04-26T10:06:05.993Z</time></trkpt><trkpt lat="40.6735673" lon="14.7781814"><ele>17.0</ele><time>2026-04-26T10:07:53.938Z</time></trkpt><trkpt lat="40.6735858" lon="14.7780803"><ele>17.0</ele><time>2026-04-26T10:07:57.96Z</time></trkpt><trkpt lat="40.673598" lon="14.777982"><ele>17.0</ele><time>2026-04-26T10:08:02.934Z</time></trkpt><trkpt lat="40.6735746" lon="14.7779022"><ele>16.999999999999996</ele><time>2026-04-26T10:08:06.996Z</time></trkpt><trkpt lat="40.6735973" lon="14.7778234"><ele>17.0</ele><time>2026-04-26T10:08:15.951Z</time></trkpt><trkpt lat="40.673911" lon="14.7781147"><ele>17.57142857142857</ele><time>2026-04-26T10:08:32.958Z</time></trkpt><trkpt lat="40.6739642" lon="14.7781682"><ele>18.142857142857142</ele><time>2026-04-26T10:08:37.011Z</time></trkpt><trkpt lat="40.6740351" lon="14.7781558"><ele>18.714285714285715</ele><time>2026-04-26T10:08:44.948Z</time></trkpt><trkpt lat="40.6741066" lon="14.7781422"><ele>19.285714285714285</ele><time>2026-04-26T10:08:49.922Z</time></trkpt><trkpt lat="40.6741823" lon="14.7780942"><ele>19.857142857142858</ele><time>2026-04-26T10:08:55.002Z</time></trkpt><trkpt lat="40.6742478" lon="14.7780507"><ele>20.428571428571427</ele><time>2026-04-26T10:09:00.978Z</time></trkpt><trkpt lat="40.6743069" lon="14.778006"><ele>21.0</ele><time>2026-04-26T10:09:06.96Z</time></trkpt><trkpt lat="40.6743632" lon="14.7779675"><ele>21.0</ele><time>2026-04-26T10:09:11.934Z</time></trkpt><trkpt lat="40.67443" lon="14.7779145"><ele>21.0</ele><time>2026-04-26T10:09:17.967Z</time></trkpt><trkpt lat="40.6744948" lon="14.7778774"><ele>21.0</ele><time>2026-04-26T10:09:22.94Z</time></trkpt><trkpt lat="40.6745624" lon="14.7778458"><ele>21.0</ele><time>2026-04-26T10:09:27.914Z</time></trkpt><trkpt lat="40.674627" lon="14.7778226"><ele>21.0</ele><time>2026-04-26T10:09:32.994Z</time></trkpt><trkpt lat="40.6747" lon="14.7778177"><ele>21.0</ele><time>2026-04-26T10:09:38.921Z</time></trkpt><trkpt lat="40.6747588" lon="14.7777765"><ele>21.0</ele><time>2026-04-26T10:09:43.901Z</time></trkpt><trkpt lat="40.6748199" lon="14.7777334"><ele>20.428571428571427</ele><time>2026-04-26T10:09:50.985Z</time></trkpt><trkpt lat="40.6748685" lon="14.7776689"><ele>19.857142857142858</ele><time>2026-04-26T10:09:56.912Z</time></trkpt><trkpt lat="40.674931" lon="14.7776379"><ele>19.285714285714285</ele><time>2026-04-26T10:10:05.907Z</time></trkpt><trkpt lat="40.6749896" lon="14.7776028"><ele>18.714285714285715</ele><time>2026-04-26T10:10:10.987Z</time></trkpt><trkpt lat="40.6750494" lon="14.7775654"><ele>18.142857142857142</ele><time>2026-04-26T10:10:15.961Z</time></trkpt><trkpt lat="40.6751156" lon="14.7775231"><ele>17.57142857142857</ele><time>2026-04-26T10:10:20.935Z</time></trkpt><trkpt lat="40.6751826" lon="14.7774734"><ele>17.0</ele><time>2026-04-26T10:10:26.879Z</time></trkpt><trkpt lat="40.6752545" lon="14.777447"><ele>18.428571428571427</ele><time>2026-04-26T10:10:32.959Z</time></trkpt><trkpt lat="40.6753253" lon="14.7774488"><ele>19.857142857142858</ele><time>2026-04-26T10:10:37.973Z</time></trkpt><trkpt lat="40.6753968" lon="14.7774208"><ele>21.285714285714285</ele><time>2026-04-26T10:10:42.947Z</time></trkpt><trkpt lat="40.6754672" lon="14.777385"><ele>22.714285714285715</ele><time>2026-04-26T10:10:46.9Z</time></trkpt><trkpt lat="40.6755013" lon="14.7773152"><ele>24.142857142857142</ele><time>2026-04-26T10:10:48.979Z</time></trkpt><trkpt lat="40.6755552" lon="14.7772703"><ele>25.57142857142857</ele><time>2026-04-26T10:10:54.975Z</time></trkpt><trkpt lat="40.6756348" lon="14.7772209"><ele>27.0</ele><time>2026-04-26T10:10:58.927Z</time></trkpt><trkpt lat="40.6757039" lon="14.7771851"><ele>27.0</ele><time>2026-04-26T10:11:01.859Z</time></trkpt><trkpt lat="40.6757775" lon="14.7771531"><ele>27.0</ele><time>2026-04-26T10:11:06.97Z</time></trkpt><trkpt lat="40.6758429" lon="14.7771321"><ele>27.0</ele><time>2026-04-26T10:11:13.955Z</time></trkpt><trkpt lat="40.6759076" lon="14.7771035"><ele>27.0</ele><time>2026-04-26T10:11:20.899Z</time></trkpt><trkpt lat="40.6759678" lon="14.7770721"><ele>27.0</ele><time>2026-04-26T10:11:27.924Z</time></trkpt><trkpt lat="40.6760315" lon="14.7770425"><ele>27.0</ele><time>2026-04-26T10:11:36.92Z</time></trkpt><trkpt lat="40.6760903" lon="14.77701"><ele>27.0</ele><time>2026-04-26T10:11:41.999Z</time></trkpt><trkpt lat="40.6761586" lon="14.7769886"><ele>26.714285714285715</ele><time>2026-04-26T10:11:46.973Z</time></trkpt><trkpt lat="40.6762233" lon="14.776945"><ele>26.428571428571427</ele><time>2026-04-26T10:11:51.021Z</time></trkpt><trkpt lat="40.676286" lon="14.7769131"><ele>26.142857142857146</ele><time>2026-04-26T10:11:56.921Z</time></trkpt><trkpt lat="40.6763553" lon="14.7768666"><ele>25.857142857142858</ele><time>2026-04-26T10:12:01.901Z</time></trkpt><trkpt lat="40.6764152" lon="14.7768201"><ele>25.571428571428573</ele><time>2026-04-26T10:12:06.975Z</time></trkpt><trkpt lat="40.6764904" lon="14.7767751"><ele>25.28571428571429</ele><time>2026-04-26T10:12:12.901Z</time></trkpt><trkpt lat="40.6765488" lon="14.7767334"><ele>25.0</ele><time>2026-04-26T10:12:18.934Z</time></trkpt><trkpt lat="40.6766047" lon="14.7766845"><ele>25.000000000000004</ele><time>2026-04-26T10:12:23.908Z</time></trkpt><trkpt lat="40.6766669" lon="14.77664"><ele>25.0</ele><time>2026-04-26T10:12:28.938Z</time></trkpt><trkpt lat="40.6767397" lon="14.7766068"><ele>25.0</ele><time>2026-04-26T10:12:35.972Z</time></trkpt><trkpt lat="40.6768066" lon="14.7765786"><ele>25.0</ele><time>2026-04-26T10:12:39.994Z</time></trkpt><trkpt lat="40.6768945" lon="14.7765436"><ele>25.000000000000004</ele><time>2026-04-26T10:12:43.909Z</time></trkpt><trkpt lat="40.6769623" lon="14.7765009"><ele>25.0</ele><time>2026-04-26T10:12:46.978Z</time></trkpt><trkpt lat="40.6770492" lon="14.7764731"><ele>25.571428571428573</ele><time>2026-04-26T10:12:49.942Z</time></trkpt><trkpt lat="40.6771282" lon="14.7764501"><ele>26.142857142857146</ele><time>2026-04-26T10:12:53.963Z</time></trkpt><trkpt lat="40.6771879" lon="14.7764217"><ele>26.714285714285715</ele><time>2026-04-26T10:12:57.985Z</time></trkpt><trkpt lat="40.6772489" lon="14.7763716"><ele>27.28571428571429</ele><time>2026-04-26T10:13:04.969Z</time></trkpt><trkpt lat="40.6773181" lon="14.7763524"><ele>27.857142857142858</ele><time>2026-04-26T10:13:12.906Z</time></trkpt><trkpt lat="40.677381" lon="14.7763209"><ele>28.428571428571434</ele><time>2026-04-26T10:13:20.976Z</time></trkpt><trkpt lat="40.6774438" lon="14.7762829"><ele>29.000000000000004</ele><time>2026-04-26T10:13:28.937Z</time></trkpt><trkpt lat="40.6775105" lon="14.7762487"><ele>29.000000000000004</ele><time>2026-04-26T10:13:34.919Z</time></trkpt><trkpt lat="40.6775683" lon="14.7762032"><ele>29.0</ele><time>2026-04-26T10:13:39.901Z</time></trkpt><trkpt lat="40.6776284" lon="14.7761689"><ele>29.000000000000004</ele><time>2026-04-26T10:13:45.925Z</time></trkpt><trkpt lat="40.6777011" lon="14.7761422"><ele>29.000000000000004</ele><time>2026-04-26T10:13:51.957Z</time></trkpt><trkpt lat="40.6777621" lon="14.7760936"><ele>29.0</ele><time>2026-04-26T10:13:56.931Z</time></trkpt><trkpt lat="40.6778223" lon="14.7760599"><ele>29.000000000000004</ele><time>2026-04-26T10:14:01.905Z</time></trkpt><trkpt lat="40.6778891" lon="14.7760337"><ele>29.000000000000004</ele><time>2026-04-26T10:14:05.927Z</time></trkpt><trkpt lat="40.6779511" lon="14.776005"><ele>27.71428571428572</ele><time>2026-04-26T10:14:12.918Z</time></trkpt><trkpt lat="40.6780106" lon="14.775972"><ele>26.42857142857143</ele><time>2026-04-26T10:14:22.965Z</time></trkpt><trkpt lat="40.6780837" lon="14.7759598"><ele>25.142857142857146</ele><time>2026-04-26T10:14:31.96Z</time></trkpt><trkpt lat="40.6781449" lon="14.7759348"><ele>23.85714285714286</ele><time>2026-04-26T10:14:36.934Z</time></trkpt><trkpt lat="40.6782164" lon="14.7759304"><ele>22.571428571428573</ele><time>2026-04-26T10:14:42.967Z</time></trkpt><trkpt lat="40.6782786" lon="14.7759096"><ele>21.285714285714285</ele><time>2026-04-26T10:14:48.999Z</time></trkpt><trkpt lat="40.6783453" lon="14.7758923"><ele>20.0</ele><time>2026-04-26T10:14:56.936Z</time></trkpt><trkpt lat="40.6784136" lon="14.7758601"><ele>20.0</ele><time>2026-04-26T10:15:02.968Z</time></trkpt><trkpt lat="40.6784758" lon="14.7758346"><ele>20.0</ele><time>2026-04-26T10:15:06.99Z</time></trkpt><trkpt lat="40.6785431" lon="14.7758401"><ele>20.0</ele><time>2026-04-26T10:15:11Z</time></trkpt><trkpt lat="40.6786147" lon="14.7758506"><ele>20.0</ele><time>2026-04-26T10:15:15.915Z</time></trkpt><trkpt lat="40.6786853" lon="14.7758518"><ele>20.0</ele><time>2026-04-26T10:15:20.959Z</time></trkpt><trkpt lat="40.6787538" lon="14.7758495"><ele>20.0</ele><time>2026-04-26T10:15:24.98Z</time></trkpt><trkpt lat="40.6788188" lon="14.7758485"><ele>20.0</ele><time>2026-04-26T10:15:28.901Z</time></trkpt><trkpt lat="40.6788786" lon="14.7757995"><ele>20.4</ele><time>2026-04-26T10:15:33.976Z</time></trkpt><trkpt lat="40.6789324" lon="14.7757447"><ele>20.8</ele><time>2026-04-26T10:15:37.997Z</time></trkpt><trkpt lat="40.678984" lon="14.7756747"><ele>21.200000000000003</ele><time>2026-04-26T10:15:42.971Z</time></trkpt><trkpt lat="40.6789863" lon="14.775578"><ele>21.6</ele><time>2026-04-26T10:15:44.982Z</time></trkpt><trkpt lat="40.6790173" lon="14.7754856"><ele>22.0</ele><time>2026-04-26T10:15:49.896Z</time></trkpt><trkpt lat="40.6792039" lon="14.7752234"><ele>21.285714285714285</ele><time>2026-04-26T10:15:54.879Z</time></trkpt><trkpt lat="40.6792495" lon="14.775119"><ele>20.57142857142857</ele><time>2026-04-26T10:15:56.94Z</time></trkpt><trkpt lat="40.6792864" lon="14.7750428"><ele>19.857142857142854</ele><time>2026-04-26T10:16:05.938Z</time></trkpt><trkpt lat="40.6793216" lon="14.7749583"><ele>19.142857142857142</ele><time>2026-04-26T10:16:10.91Z</time></trkpt><trkpt lat="40.6793604" lon="14.7748742"><ele>18.428571428571427</ele><time>2026-04-26T10:16:16.942Z</time></trkpt><trkpt lat="40.6793857" lon="14.774791"><ele>17.71428571428571</ele><time>2026-04-26T10:16:22.974Z</time></trkpt><trkpt lat="40.6793278" lon="14.7747367"><ele>17.0</ele><time>2026-04-26T10:16:26.996Z</time></trkpt><trkpt lat="40.6792724" lon="14.7746751"><ele>16.999999999999996</ele><time>2026-04-26T10:16:29.959Z</time></trkpt><trkpt lat="40.6792105" lon="14.7746268"><ele>17.0</ele><time>2026-04-26T10:16:33.98Z</time></trkpt><trkpt lat="40.6791982" lon="14.774541"><ele>17.0</ele><time>2026-04-26T10:16:39.899Z</time></trkpt><trkpt lat="40.6791934" lon="14.7744485"><ele>17.0</ele><time>2026-04-26T10:16:45.939Z</time></trkpt><trkpt lat="40.6792476" lon="14.7744028"><ele>17.0</ele><time>2026-04-26T10:16:51.896Z</time></trkpt><trkpt lat="40.679321" lon="14.7743773"><ele>16.999999999999996</ele><time>2026-04-26T10:16:57.901Z</time></trkpt><trkpt lat="40.6793829" lon="14.7743538"><ele>17.0</ele><time>2026-04-26T10:17:02.917Z</time></trkpt><trkpt lat="40.6794545" lon="14.7743088"><ele>17.142857142857142</ele><time>2026-04-26T10:17:08.978Z</time></trkpt><trkpt lat="40.6794885" lon="14.7742278"><ele>17.285714285714285</ele><time>2026-04-26T10:17:13.983Z</time></trkpt><trkpt lat="40.6795204" lon="14.7741494"><ele>17.42857142857143</ele><time>2026-04-26T10:17:18.839Z</time></trkpt><trkpt lat="40.6795642" lon="14.7740633"><ele>17.57142857142857</ele><time>2026-04-26T10:17:25.977Z</time></trkpt><trkpt lat="40.6795975" lon="14.7739805"><ele>17.714285714285715</ele><time>2026-04-26T10:17:29.963Z</time></trkpt><trkpt lat="40.6796426" lon="14.7739066"><ele>17.857142857142858</ele><time>2026-04-26T10:17:34.937Z</time></trkpt><trkpt lat="40.6796797" lon="14.7738272"><ele>18.0</ele><time>2026-04-26T10:17:38.958Z</time></trkpt><trkpt lat="40.6797175" lon="14.7737502"><ele>18.000000000000004</ele><time>2026-04-26T10:17:42.98Z</time></trkpt><trkpt lat="40.6797523" lon="14.7736655"><ele>18.0</ele><time>2026-04-26T10:17:47.953Z</time></trkpt><trkpt lat="40.6797695" lon="14.7735806"><ele>18.0</ele><time>2026-04-26T10:17:53.986Z</time></trkpt><trkpt lat="40.6798164" lon="14.7735229"><ele>18.0</ele><time>2026-04-26T10:18:00.97Z</time></trkpt><trkpt lat="40.6799152" lon="14.7734807"><ele>18.0</ele><time>2026-04-26T10:18:21.924Z</time></trkpt><trkpt lat="40.6799671" lon="14.7734254"><ele>18.000000000000004</ele><time>2026-04-26T10:18:25.976Z</time></trkpt><trkpt lat="40.6800223" lon="14.7733808"><ele>18.0</ele><time>2026-04-26T10:18:29.918Z</time></trkpt><trkpt lat="40.680065" lon="14.7733032"><ele>19.142857142857146</ele><time>2026-04-26T10:18:34.941Z</time></trkpt><trkpt lat="40.6801005" lon="14.7732274"><ele>20.285714285714285</ele><time>2026-04-26T10:18:38.981Z</time></trkpt><trkpt lat="40.6801495" lon="14.7731386"><ele>21.42857142857143</ele><time>2026-04-26T10:18:44.896Z</time></trkpt><trkpt lat="40.6801843" lon="14.7730669"><ele>22.571428571428573</ele><time>2026-04-26T10:18:48.937Z</time></trkpt><trkpt lat="40.6802123" lon="14.772984"><ele>23.714285714285715</ele><time>2026-04-26T10:18:53.99Z</time></trkpt><trkpt lat="40.6802223" lon="14.7728963"><ele>24.857142857142858</ele><time>2026-04-26T10:19:02.016Z</time></trkpt><trkpt lat="40.6802621" lon="14.7728095"><ele>26.0</ele><time>2026-04-26T10:19:09.218Z</time></trkpt><trkpt lat="40.6802955" lon="14.7727181"><ele>26.428571428571427</ele><time>2026-04-26T10:19:13.991Z</time></trkpt><trkpt lat="40.6803322" lon="14.7726408"><ele>26.85714285714286</ele><time>2026-04-26T10:19:17.907Z</time></trkpt><trkpt lat="40.6803626" lon="14.7725566"><ele>27.28571428571429</ele><time>2026-04-26T10:19:21.928Z</time></trkpt><trkpt lat="40.6803976" lon="14.7724863"><ele>27.714285714285715</ele><time>2026-04-26T10:19:28.913Z</time></trkpt><trkpt lat="40.6804355" lon="14.7724032"><ele>28.142857142857146</ele><time>2026-04-26T10:19:33.992Z</time></trkpt><trkpt lat="40.6804742" lon="14.7723282"><ele>28.571428571428577</ele><time>2026-04-26T10:19:37.908Z</time></trkpt><trkpt lat="40.6805052" lon="14.772241"><ele>29.000000000000004</ele><time>2026-04-26T10:19:44.958Z</time></trkpt><trkpt lat="40.680532" lon="14.7721497"><ele>29.000000000000004</ele><time>2026-04-26T10:19:49.972Z</time></trkpt><trkpt lat="40.6805281" lon="14.7720605"><ele>29.0</ele><time>2026-04-26T10:19:54.946Z</time></trkpt><trkpt lat="40.6805611" lon="14.7719879"><ele>29.000000000000004</ele><time>2026-04-26T10:20:00.978Z</time></trkpt><trkpt lat="40.6806087" lon="14.7719084"><ele>29.000000000000004</ele><time>2026-04-26T10:20:07.955Z</time></trkpt><trkpt lat="40.6806487" lon="14.7718329"><ele>29.0</ele><time>2026-04-26T10:20:12.937Z</time></trkpt><trkpt lat="40.6806858" lon="14.771753"><ele>29.000000000000004</ele><time>2026-04-26T10:20:17.91Z</time></trkpt><trkpt lat="40.6807213" lon="14.7716822"><ele>29.000000000000004</ele><time>2026-04-26T10:20:23.943Z</time></trkpt><trkpt lat="40.6807528" lon="14.7716072"><ele>28.71428571428572</ele><time>2026-04-26T10:20:30.927Z</time></trkpt><trkpt lat="40.680785" lon="14.7715307"><ele>28.42857142857143</ele><time>2026-04-26T10:20:35.9Z</time></trkpt><trkpt lat="40.6808256" lon="14.7714632"><ele>28.142857142857146</ele><time>2026-04-26T10:20:40.981Z</time></trkpt><trkpt lat="40.6808732" lon="14.7713926"><ele>27.85714285714286</ele><time>2026-04-26T10:20:46.907Z</time></trkpt><trkpt lat="40.6809128" lon="14.7713149"><ele>27.57142857142857</ele><time>2026-04-26T10:20:52.939Z</time></trkpt><trkpt lat="40.6809494" lon="14.7712357"><ele>27.285714285714285</ele><time>2026-04-26T10:20:58.97Z</time></trkpt><trkpt lat="40.6809893" lon="14.7711495"><ele>27.0</ele><time>2026-04-26T10:21:03.945Z</time></trkpt><trkpt lat="40.681034" lon="14.7710725"><ele>27.285714285714285</ele><time>2026-04-26T10:21:08.637Z</time></trkpt><trkpt lat="40.6810785" lon="14.7709801"><ele>27.57142857142857</ele><time>2026-04-26T10:21:16.695Z</time></trkpt><trkpt lat="40.6811161" lon="14.770906"><ele>27.85714285714286</ele><time>2026-04-26T10:21:22.995Z</time></trkpt><trkpt lat="40.6811472" lon="14.7708327"><ele>28.142857142857146</ele><time>2026-04-26T10:21:27.918Z</time></trkpt><trkpt lat="40.6811878" lon="14.7707551"><ele>28.42857142857143</ele><time>2026-04-26T10:21:33.879Z</time></trkpt><trkpt lat="40.6812262" lon="14.7706775"><ele>28.71428571428572</ele><time>2026-04-26T10:21:40.986Z</time></trkpt><trkpt lat="40.6812567" lon="14.7705873"><ele>29.000000000000004</ele><time>2026-04-26T10:21:46.912Z</time></trkpt><trkpt lat="40.6812995" lon="14.770526"><ele>30.000000000000004</ele><time>2026-04-26T10:21:50.934Z</time></trkpt><trkpt lat="40.6813439" lon="14.7704624"><ele>31.0</ele><time>2026-04-26T10:21:57.718Z</time></trkpt><trkpt lat="40.6813951" lon="14.770405"><ele>32.0</ele><time>2026-04-26T10:22:04.875Z</time></trkpt><trkpt lat="40.6813875" lon="14.7703002"><ele>33.0</ele><time>2026-04-26T10:22:09.983Z</time></trkpt><trkpt lat="40.6813568" lon="14.7702189"><ele>34.0</ele><time>2026-04-26T10:22:13.9Z</time></trkpt><trkpt lat="40.6813188" lon="14.7701394"><ele>35.00000000000001</ele><time>2026-04-26T10:22:18.978Z</time></trkpt><trkpt lat="40.6812764" lon="14.7700529"><ele>36.0</ele><time>2026-04-26T10:22:23.952Z</time></trkpt><trkpt lat="40.6812518" lon="14.7699685"><ele>37.142857142857146</ele><time>2026-04-26T10:22:28.926Z</time></trkpt><trkpt lat="40.6812392" lon="14.7698843"><ele>38.285714285714285</ele><time>2026-04-26T10:22:34.917Z</time></trkpt><trkpt lat="40.6812292" lon="14.7698011"><ele>39.42857142857143</ele><time>2026-04-26T10:22:39.932Z</time></trkpt><trkpt lat="40.681216" lon="14.7697121"><ele>40.57142857142857</ele><time>2026-04-26T10:22:44.906Z</time></trkpt><trkpt lat="40.6812131" lon="14.7696225"><ele>41.714285714285715</ele><time>2026-04-26T10:22:49.84Z</time></trkpt><trkpt lat="40.6811991" lon="14.7695307"><ele>42.85714285714286</ele><time>2026-04-26T10:22:55.977Z</time></trkpt><trkpt lat="40.6811955" lon="14.7694477"><ele>44.0</ele><time>2026-04-26T10:23:00.992Z</time></trkpt><trkpt lat="40.6811994" lon="14.769352"><ele>44.142857142857146</ele><time>2026-04-26T10:23:05.965Z</time></trkpt><trkpt lat="40.681171" lon="14.7692696"><ele>44.285714285714285</ele><time>2026-04-26T10:23:11.018Z</time></trkpt><trkpt lat="40.6811676" lon="14.7691849"><ele>44.42857142857143</ele><time>2026-04-26T10:23:15.913Z</time></trkpt><trkpt lat="40.6811786" lon="14.7690937"><ele>44.57142857142857</ele><time>2026-04-26T10:23:21.976Z</time></trkpt><trkpt lat="40.6812134" lon="14.7690234"><ele>44.714285714285715</ele><time>2026-04-26T10:23:28.93Z</time></trkpt><trkpt lat="40.6811978" lon="14.7689216"><ele>44.857142857142854</ele><time>2026-04-26T10:23:33.904Z</time></trkpt><trkpt lat="40.6811781" lon="14.7688425"><ele>45.0</ele><time>2026-04-26T10:23:37.925Z</time></trkpt><trkpt lat="40.6811919" lon="14.7687472"><ele>45.0</ele><time>2026-04-26T10:23:43.957Z</time></trkpt><trkpt lat="40.6812023" lon="14.7686635"><ele>45.0</ele><time>2026-04-26T10:23:48.931Z</time></trkpt><trkpt lat="40.6812194" lon="14.7685829"><ele>45.0</ele><time>2026-04-26T10:23:55.976Z</time></trkpt><trkpt lat="40.6812278" lon="14.7684924"><ele>45.0</ele><time>2026-04-26T10:24:01.948Z</time></trkpt><trkpt lat="40.6812412" lon="14.7684101"><ele>45.0</ele><time>2026-04-26T10:24:07.98Z</time></trkpt><trkpt lat="40.6812499" lon="14.7683152"><ele>45.0</ele><time>2026-04-26T10:24:13.906Z</time></trkpt><trkpt lat="40.6812663" lon="14.7682307"><ele>45.0</ele><time>2026-04-26T10:24:18.986Z</time></trkpt><trkpt lat="40.6812864" lon="14.7681414"><ele>45.57142857142857</ele><time>2026-04-26T10:24:24.912Z</time></trkpt><trkpt lat="40.6813195" lon="14.768061"><ele>46.142857142857146</ele><time>2026-04-26T10:24:30.944Z</time></trkpt><trkpt lat="40.6813387" lon="14.767966"><ele>46.714285714285715</ele><time>2026-04-26T10:24:42.939Z</time></trkpt><trkpt lat="40.68134" lon="14.7678794"><ele>47.285714285714285</ele><time>2026-04-26T10:24:46.925Z</time></trkpt><trkpt lat="40.6813674" lon="14.7678032"><ele>47.85714285714286</ele><time>2026-04-26T10:24:53.91Z</time></trkpt><trkpt lat="40.681437" lon="14.7677989"><ele>48.42857142857143</ele><time>2026-04-26T10:25:05.597Z</time></trkpt><trkpt lat="40.6814885" lon="14.767748"><ele>49.0</ele><time>2026-04-26T10:25:14.679Z</time></trkpt><trkpt lat="40.6815809" lon="14.7677372"><ele>48.99999999999999</ele><time>2026-04-26T10:25:24.477Z</time></trkpt><trkpt lat="40.6816555" lon="14.7677212"><ele>49.0</ele><time>2026-04-26T10:26:10.319Z</time></trkpt><trkpt lat="40.681573" lon="14.7677833"><ele>49.0</ele><time>2026-04-26T10:27:46.178Z</time></trkpt><trkpt lat="40.6815076" lon="14.7678024"><ele>49.0</ele><time>2026-04-26T10:28:37.997Z</time></trkpt><trkpt lat="40.681553" lon="14.7678796"><ele>48.99999999999999</ele><time>2026-04-26T10:29:21.658Z</time></trkpt><trkpt lat="40.6814839" lon="14.7679276"><ele>49.0</ele><time>2026-04-26T10:31:59Z</time></trkpt><trkpt lat="40.6814024" lon="14.7677646"><ele>49.714285714285715</ele><time>2026-04-26T10:32:05.909Z</time></trkpt><trkpt lat="40.6813677" lon="14.7676822"><ele>50.42857142857143</ele><time>2026-04-26T10:32:10.989Z</time></trkpt><trkpt lat="40.6813844" lon="14.7675961"><ele>51.14285714285714</ele><time>2026-04-26T10:32:18.927Z</time></trkpt><trkpt lat="40.6814217" lon="14.7675155"><ele>51.85714285714286</ele><time>2026-04-26T10:32:24.959Z</time></trkpt><trkpt lat="40.6814508" lon="14.767439"><ele>52.57142857142857</ele><time>2026-04-26T10:32:30.991Z</time></trkpt><trkpt lat="40.6815155" lon="14.7674252"><ele>53.285714285714285</ele><time>2026-04-26T10:32:36.939Z</time></trkpt><trkpt lat="40.6815809" lon="14.7674351"><ele>54.0</ele><time>2026-04-26T10:32:44.961Z</time></trkpt><trkpt lat="40.6816535" lon="14.7674089"><ele>54.0</ele><time>2026-04-26T10:32:51.946Z</time></trkpt><trkpt lat="40.681679" lon="14.7673283"><ele>54.0</ele><time>2026-04-26T10:32:54.909Z</time></trkpt><trkpt lat="40.6817158" lon="14.7672374"><ele>54.0</ele><time>2026-04-26T10:32:58.931Z</time></trkpt><trkpt lat="40.6817469" lon="14.7671628"><ele>54.0</ele><time>2026-04-26T10:33:01.9Z</time></trkpt><trkpt lat="40.6817738" lon="14.7670766"><ele>54.0</ele><time>2026-04-26T10:33:08.985Z</time></trkpt><trkpt lat="40.6818051" lon="14.7669952"><ele>54.0</ele><time>2026-04-26T10:33:14.911Z</time></trkpt><trkpt lat="40.681833" lon="14.766909"><ele>54.0</ele><time>2026-04-26T10:33:20.862Z</time></trkpt><trkpt lat="40.6818733" lon="14.7668438"><ele>53.857142857142854</ele><time>2026-04-26T10:33:24.965Z</time></trkpt><trkpt lat="40.6818551" lon="14.7667486"><ele>53.71428571428571</ele><time>2026-04-26T10:33:33.961Z</time></trkpt><trkpt lat="40.6818284" lon="14.7666665"><ele>53.57142857142857</ele><time>2026-04-26T10:33:37.982Z</time></trkpt><trkpt lat="40.6817766" lon="14.7665933"><ele>53.42857142857143</ele><time>2026-04-26T10:33:40.945Z</time></trkpt><trkpt lat="40.6817253" lon="14.7665086"><ele>53.285714285714285</ele><time>2026-04-26T10:33:44.98Z</time></trkpt><trkpt lat="40.681706" lon="14.7664213"><ele>53.142857142857146</ele><time>2026-04-26T10:33:48.988Z</time></trkpt><trkpt lat="40.6817185" lon="14.7663282"><ele>53.0</ele><time>2026-04-26T10:33:52.896Z</time></trkpt><trkpt lat="40.6817215" lon="14.766243"><ele>53.0</ele><time>2026-04-26T10:33:57.984Z</time></trkpt><trkpt lat="40.6817257" lon="14.7661552"><ele>53.0</ele><time>2026-04-26T10:34:03.91Z</time></trkpt><trkpt lat="40.6817255" lon="14.7660625"><ele>53.0</ele><time>2026-04-26T10:34:09.943Z</time></trkpt><trkpt lat="40.6817131" lon="14.7659736"><ele>53.0</ele><time>2026-04-26T10:34:14.917Z</time></trkpt><trkpt lat="40.6817109" lon="14.7658864"><ele>53.0</ele><time>2026-04-26T10:34:19.9Z</time></trkpt><trkpt lat="40.6817072" lon="14.7657896"><ele>53.0</ele><time>2026-04-26T10:34:25.923Z</time></trkpt><trkpt lat="40.6816666" lon="14.7657228"><ele>53.0</ele><time>2026-04-26T10:34:29.899Z</time></trkpt><trkpt lat="40.6816298" lon="14.7656481"><ele>51.85714285714286</ele><time>2026-04-26T10:34:33.966Z</time></trkpt><trkpt lat="40.6816086" lon="14.7655591"><ele>50.71428571428571</ele><time>2026-04-26T10:34:39.998Z</time></trkpt><trkpt lat="40.6815848" lon="14.7654789"><ele>49.57142857142857</ele><time>2026-04-26T10:34:44.897Z</time></trkpt><trkpt lat="40.6815655" lon="14.7653929"><ele>48.42857142857143</ele><time>2026-04-26T10:34:49.946Z</time></trkpt><trkpt lat="40.6815671" lon="14.7653072"><ele>47.28571428571429</ele><time>2026-04-26T10:34:56.931Z</time></trkpt><trkpt lat="40.6815711" lon="14.7652155"><ele>46.14285714285714</ele><time>2026-04-26T10:35:02.963Z</time></trkpt><trkpt lat="40.6815553" lon="14.7651137"><ele>45.0</ele><time>2026-04-26T10:35:07.937Z</time></trkpt><trkpt lat="40.6815411" lon="14.7649981"><ele>45.0</ele><time>2026-04-26T10:35:13.919Z</time></trkpt><trkpt lat="40.6815264" lon="14.7649035"><ele>45.0</ele><time>2026-04-26T10:35:18.943Z</time></trkpt><trkpt lat="40.6815115" lon="14.7648164"><ele>45.0</ele><time>2026-04-26T10:35:24.975Z</time></trkpt><trkpt lat="40.6814957" lon="14.764727"><ele>45.0</ele><time>2026-04-26T10:35:30.957Z</time></trkpt><trkpt lat="40.6814831" lon="14.7646293"><ele>45.0</ele><time>2026-04-26T10:35:36.934Z</time></trkpt><trkpt lat="40.6814866" lon="14.7645252"><ele>45.0</ele><time>2026-04-26T10:35:41.908Z</time></trkpt><trkpt lat="40.6815072" lon="14.7644283"><ele>45.0</ele><time>2026-04-26T10:35:46.988Z</time></trkpt><trkpt lat="40.6815301" lon="14.7643502"><ele>46.0</ele><time>2026-04-26T10:35:51.961Z</time></trkpt><trkpt lat="40.6815577" lon="14.7642751"><ele>46.0</ele><time>2026-04-26T10:35:55.983Z</time></trkpt><trkpt lat="40.6815385" lon="14.7641911"><ele>46.0</ele><time>2026-04-26T10:36:01.859Z</time></trkpt><trkpt lat="40.6815527" lon="14.7641037"><ele>46.0</ele><time>2026-04-26T10:36:09.952Z</time></trkpt><trkpt lat="40.6815312" lon="14.7640235"><ele>46.0</ele><time>2026-04-26T10:36:17.899Z</time></trkpt></trkseg></trk></gpx>